<?xml version="1.0" encoding="UTF-8"?>
<gpx version="1.0" creator="Trackator" xmlns:xsi="http://www.w3.org/2001/XMLSchema-instance" xmlns="http://www.topografix.com/GPX/1/0" xmlns:topografix="http://www.topografix.com/GPX/Private/TopoGrafix/0/1" xsi:schemaLocation="http://www.topografix.com/GPX/1/0 http://www.topografix.com/GPX/1/0/gpx.xsd http://www.topografix.com/GPX/Private/TopoGrafix/0/1 http://www.topografix.com/GPX/Private/TopoGrafix/0/1/topografix.xsd">
<metadata>
<link href="http://www.trackator.com">
<text>Trackator</text>
</link>
</metadata>
<time>2015-08-01T20:32:33Z</time>
<trk>
<name>Track: </name>
<desc>Cycling</desc>
<trkseg>
<trkpt lat="53.3484520" lon="18.4461683">
<ele>149</ele>
<time>2015-08-01T20:32:33Z</time>
</trkpt>
<trkpt lat="53.3485167" lon="18.4461776">
<ele>141</ele>
<time>2015-08-01T20:32:37Z</time>
</trkpt>
<trkpt lat="53.3485372" lon="18.4461838">
<ele>140</ele>
<time>2015-08-01T20:32:39Z</time>
</trkpt>
<trkpt lat="53.3485575" lon="18.4461922">
<ele>142</ele>
<time>2015-08-01T20:32:41Z</time>
</trkpt>
<trkpt lat="53.3485557" lon="18.4461926">
<ele>140</ele>
<time>2015-08-01T20:32:43Z</time>
</trkpt>
<trkpt lat="53.3485580" lon="18.4461903">
<ele>139</ele>
<time>2015-08-01T20:32:45Z</time>
</trkpt>
<trkpt lat="53.3485589" lon="18.4461918">
<ele>139</ele>
<time>2015-08-01T20:32:47Z</time>
</trkpt>
<trkpt lat="53.3485580" lon="18.4461918">
<ele>139</ele>
<time>2015-08-01T20:32:49Z</time>
</trkpt>
<trkpt lat="53.3485576" lon="18.4461915">
<ele>139</ele>
<time>2015-08-01T20:32:51Z</time>
</trkpt>
<trkpt lat="53.3485573" lon="18.4461915">
<ele>139</ele>
<time>2015-08-01T20:32:53Z</time>
</trkpt>
<trkpt lat="53.3485571" lon="18.4461915">
<ele>139</ele>
<time>2015-08-01T20:32:55Z</time>
</trkpt>
<trkpt lat="53.3485585" lon="18.4461907">
<ele>139</ele>
<time>2015-08-01T20:32:57Z</time>
</trkpt>
<trkpt lat="53.3485243" lon="18.4461781">
<ele>135</ele>
<time>2015-08-01T20:32:59Z</time>
</trkpt>
<trkpt lat="53.3485103" lon="18.4461578">
<ele>131</ele>
<time>2015-08-01T20:33:01Z</time>
</trkpt>
<trkpt lat="53.3485067" lon="18.4460502">
<ele>129</ele>
<time>2015-08-01T20:33:03Z</time>
</trkpt>
<trkpt lat="53.3484798" lon="18.4459545">
<ele>125</ele>
<time>2015-08-01T20:33:05Z</time>
</trkpt>
<trkpt lat="53.3484796" lon="18.4458555">
<ele>125</ele>
<time>2015-08-01T20:33:07Z</time>
</trkpt>
<trkpt lat="53.3484638" lon="18.4457459">
<ele>123</ele>
<time>2015-08-01T20:33:09Z</time>
</trkpt>
<trkpt lat="53.3484445" lon="18.4456556">
<ele>122</ele>
<time>2015-08-01T20:33:11Z</time>
</trkpt>
<trkpt lat="53.3484214" lon="18.4455909">
<ele>121</ele>
<time>2015-08-01T20:33:13Z</time>
</trkpt>
<trkpt lat="53.3483992" lon="18.4455912">
<ele>119</ele>
<time>2015-08-01T20:33:15Z</time>
</trkpt>
<trkpt lat="53.3483870" lon="18.4456094">
<ele>117</ele>
<time>2015-08-01T20:33:17Z</time>
</trkpt>
<trkpt lat="53.3483788" lon="18.4456142">
<ele>116</ele>
<time>2015-08-01T20:33:19Z</time>
</trkpt>
<trkpt lat="53.3483606" lon="18.4455959">
<ele>113</ele>
<time>2015-08-01T20:33:21Z</time>
</trkpt>
<trkpt lat="53.3483034" lon="18.4455866">
<ele>106</ele>
<time>2015-08-01T20:33:23Z</time>
</trkpt>
<trkpt lat="53.3482205" lon="18.4455943">
<ele>105</ele>
<time>2015-08-01T20:33:25Z</time>
</trkpt>
<trkpt lat="53.3481445" lon="18.4455955">
<ele>103</ele>
<time>2015-08-01T20:33:27Z</time>
</trkpt>
<trkpt lat="53.3480933" lon="18.4456005">
<ele>102</ele>
<time>2015-08-01T20:33:29Z</time>
</trkpt>
<trkpt lat="53.3480859" lon="18.4456236">
<ele>101</ele>
<time>2015-08-01T20:33:31Z</time>
</trkpt>
<trkpt lat="53.3481110" lon="18.4456228">
<ele>101</ele>
<time>2015-08-01T20:33:33Z</time>
</trkpt>
<trkpt lat="53.3481831" lon="18.4456225">
<ele>100</ele>
<time>2015-08-01T20:33:35Z</time>
</trkpt>
<trkpt lat="53.3482668" lon="18.4456289">
<ele>101</ele>
<time>2015-08-01T20:33:37Z</time>
</trkpt>
<trkpt lat="53.3483507" lon="18.4456433">
<ele>100</ele>
<time>2015-08-01T20:33:39Z</time>
</trkpt>
<trkpt lat="53.3484325" lon="18.4456690">
<ele>100</ele>
<time>2015-08-01T20:33:41Z</time>
</trkpt>
<trkpt lat="53.3485130" lon="18.4456863">
<ele>100</ele>
<time>2015-08-01T20:33:43Z</time>
</trkpt>
<trkpt lat="53.3485929" lon="18.4457012">
<ele>100</ele>
<time>2015-08-01T20:33:45Z</time>
</trkpt>
<trkpt lat="53.3486663" lon="18.4457136">
<ele>100</ele>
<time>2015-08-01T20:33:47Z</time>
</trkpt>
<trkpt lat="53.3487027" lon="18.4457095">
<ele>100</ele>
<time>2015-08-01T20:33:49Z</time>
</trkpt>
<trkpt lat="53.3487167" lon="18.4456974">
<ele>98</ele>
<time>2015-08-01T20:33:51Z</time>
</trkpt>
<trkpt lat="53.3487324" lon="18.4457023">
<ele>99</ele>
<time>2015-08-01T20:33:53Z</time>
</trkpt>
<trkpt lat="53.3487641" lon="18.4457003">
<ele>99</ele>
<time>2015-08-01T20:33:55Z</time>
</trkpt>
<trkpt lat="53.3488418" lon="18.4457060">
<ele>98</ele>
<time>2015-08-01T20:33:57Z</time>
</trkpt>
<trkpt lat="53.3489282" lon="18.4457125">
<ele>98</ele>
<time>2015-08-01T20:33:59Z</time>
</trkpt>
<trkpt lat="53.3490113" lon="18.4456643">
<ele>98</ele>
<time>2015-08-01T20:34:01Z</time>
</trkpt>
<trkpt lat="53.3491250" lon="18.4456316">
<ele>97</ele>
<time>2015-08-01T20:34:05Z</time>
</trkpt>
<trkpt lat="53.3491577" lon="18.4456407">
<ele>98</ele>
<time>2015-08-01T20:34:07Z</time>
</trkpt>
<trkpt lat="53.3492119" lon="18.4456099">
<ele>99</ele>
<time>2015-08-01T20:34:09Z</time>
</trkpt>
<trkpt lat="53.3492700" lon="18.4455614">
<ele>100</ele>
<time>2015-08-01T20:34:11Z</time>
</trkpt>
<trkpt lat="53.3493228" lon="18.4455226">
<ele>100</ele>
<time>2015-08-01T20:34:13Z</time>
</trkpt>
<trkpt lat="53.3493666" lon="18.4455059">
<ele>101</ele>
<time>2015-08-01T20:34:15Z</time>
</trkpt>
<trkpt lat="53.3494068" lon="18.4455461">
<ele>101</ele>
<time>2015-08-01T20:34:17Z</time>
</trkpt>
<trkpt lat="53.3494498" lon="18.4456390">
<ele>101</ele>
<time>2015-08-01T20:34:19Z</time>
</trkpt>
<trkpt lat="53.3495020" lon="18.4457450">
<ele>99</ele>
<time>2015-08-01T20:34:21Z</time>
</trkpt>
<trkpt lat="53.3495572" lon="18.4458549">
<ele>99</ele>
<time>2015-08-01T20:34:23Z</time>
</trkpt>
<trkpt lat="53.3496084" lon="18.4459540">
<ele>100</ele>
<time>2015-08-01T20:34:25Z</time>
</trkpt>
<trkpt lat="53.3496565" lon="18.4460449">
<ele>99</ele>
<time>2015-08-01T20:34:27Z</time>
</trkpt>
<trkpt lat="53.3497025" lon="18.4461394">
<ele>99</ele>
<time>2015-08-01T20:34:29Z</time>
</trkpt>
<trkpt lat="53.3497501" lon="18.446236">
<ele>100</ele>
<time>2015-08-01T20:34:31Z</time>
</trkpt>
<trkpt lat="53.3497993" lon="18.4463246">
<ele>101</ele>
<time>2015-08-01T20:34:33Z</time>
</trkpt>
<trkpt lat="53.3498493" lon="18.4464127">
<ele>101</ele>
<time>2015-08-01T20:34:35Z</time>
</trkpt>
<trkpt lat="53.3499015" lon="18.4465086">
<ele>101</ele>
<time>2015-08-01T20:34:37Z</time>
</trkpt>
<trkpt lat="53.3499588" lon="18.4466227">
<ele>101</ele>
<time>2015-08-01T20:34:39Z</time>
</trkpt>
<trkpt lat="53.3500184" lon="18.4467354">
<ele>101</ele>
<time>2015-08-01T20:34:41Z</time>
</trkpt>
<trkpt lat="53.3500782" lon="18.4468438">
<ele>101</ele>
<time>2015-08-01T20:34:43Z</time>
</trkpt>
<trkpt lat="53.3501314" lon="18.4469560">
<ele>100</ele>
<time>2015-08-01T20:34:45Z</time>
</trkpt>
<trkpt lat="53.3501894" lon="18.4470930">
<ele>100</ele>
<time>2015-08-01T20:34:47Z</time>
</trkpt>
<trkpt lat="53.3502815" lon="18.4472297">
<ele>100</ele>
<time>2015-08-01T20:34:49Z</time>
</trkpt>
<trkpt lat="53.3503536" lon="18.4473656">
<ele>99</ele>
<time>2015-08-01T20:34:51Z</time>
</trkpt>
<trkpt lat="53.3504020" lon="18.4474579">
<ele>98</ele>
<time>2015-08-01T20:34:53Z</time>
</trkpt>
<trkpt lat="53.3503978" lon="18.4474803">
<ele>96</ele>
<time>2015-08-01T20:34:55Z</time>
</trkpt>
<trkpt lat="53.3503943" lon="18.4474834">
<ele>95</ele>
<time>2015-08-01T20:34:57Z</time>
</trkpt>
<trkpt lat="53.3503917" lon="18.4474849">
<ele>94</ele>
<time>2015-08-01T20:34:59Z</time>
</trkpt>
<trkpt lat="53.3503871" lon="18.4474872">
<ele>94</ele>
<time>2015-08-01T20:35:01Z</time>
</trkpt>
<trkpt lat="53.3503822" lon="18.4474853">
<ele>94</ele>
<time>2015-08-01T20:35:03Z</time>
</trkpt>
<trkpt lat="53.3503829" lon="18.4474890">
<ele>93</ele>
<time>2015-08-01T20:35:05Z</time>
</trkpt>
<trkpt lat="53.3503824" lon="18.4474894">
<ele>93</ele>
<time>2015-08-01T20:35:07Z</time>
</trkpt>
<trkpt lat="53.3503813" lon="18.4474893">
<ele>93</ele>
<time>2015-08-01T20:35:09Z</time>
</trkpt>
<trkpt lat="53.3503843" lon="18.4474902">
<ele>93</ele>
<time>2015-08-01T20:35:11Z</time>
</trkpt>
<trkpt lat="53.3503875" lon="18.4474883">
<ele>93</ele>
<time>2015-08-01T20:35:13Z</time>
</trkpt>
<trkpt lat="53.3503878" lon="18.4474898">
<ele>93</ele>
<time>2015-08-01T20:35:15Z</time>
</trkpt>
<trkpt lat="53.3503898" lon="18.4474879">
<ele>93</ele>
<time>2015-08-01T20:35:17Z</time>
</trkpt>
<trkpt lat="53.3503908" lon="18.4474902">
<ele>92</ele>
<time>2015-08-01T20:35:19Z</time>
</trkpt>
<trkpt lat="53.3504095" lon="18.4475242">
<ele>92</ele>
<time>2015-08-01T20:35:21Z</time>
</trkpt>
<trkpt lat="53.3504401" lon="18.4475909">
<ele>91</ele>
<time>2015-08-01T20:35:23Z</time>
</trkpt>
<trkpt lat="53.3504747" lon="18.4476611">
<ele>90</ele>
<time>2015-08-01T20:35:25Z</time>
</trkpt>
<trkpt lat="53.3505346" lon="18.4477440">
<ele>90</ele>
<time>2015-08-01T20:35:27Z</time>
</trkpt>
<trkpt lat="53.3506280" lon="18.4478655">
<ele>89</ele>
<time>2015-08-01T20:35:29Z</time>
</trkpt>
<trkpt lat="53.3507024" lon="18.4480115">
<ele>88</ele>
<time>2015-08-01T20:35:31Z</time>
</trkpt>
<trkpt lat="53.3507882" lon="18.4481684">
<ele>87</ele>
<time>2015-08-01T20:35:33Z</time>
</trkpt>
<trkpt lat="53.3508727" lon="18.4483313">
<ele>88</ele>
<time>2015-08-01T20:35:35Z</time>
</trkpt>
<trkpt lat="53.3509711" lon="18.4485163">
<ele>87</ele>
<time>2015-08-01T20:35:37Z</time>
</trkpt>
<trkpt lat="53.3510707" lon="18.4487105">
<ele>86</ele>
<time>2015-08-01T20:35:39Z</time>
</trkpt>
<trkpt lat="53.3511791" lon="18.4489166">
<ele>87</ele>
<time>2015-08-01T20:35:41Z</time>
</trkpt>
<trkpt lat="53.3512949" lon="18.4491353">
<ele>85</ele>
<time>2015-08-01T20:35:43Z</time>
</trkpt>
<trkpt lat="53.3514125" lon="18.4493630">
<ele>85</ele>
<time>2015-08-01T20:35:45Z</time>
</trkpt>
<trkpt lat="53.3515229" lon="18.4495872">
<ele>85</ele>
<time>2015-08-01T20:35:47Z</time>
</trkpt>
<trkpt lat="53.3516079" lon="18.4498018">
<ele>86</ele>
<time>2015-08-01T20:35:49Z</time>
</trkpt>
<trkpt lat="53.3516906" lon="18.4499812">
<ele>86</ele>
<time>2015-08-01T20:35:51Z</time>
</trkpt>
<trkpt lat="53.3517571" lon="18.4501630">
<ele>89</ele>
<time>2015-08-01T20:35:53Z</time>
</trkpt>
<trkpt lat="53.3518588" lon="18.4502735">
<ele>86</ele>
<time>2015-08-01T20:35:55Z</time>
</trkpt>
<trkpt lat="53.3519752" lon="18.4502126">
<ele>84</ele>
<time>2015-08-01T20:35:57Z</time>
</trkpt>
<trkpt lat="53.3520955" lon="18.4500763">
<ele>84</ele>
<time>2015-08-01T20:35:59Z</time>
</trkpt>
<trkpt lat="53.3522188" lon="18.4499404">
<ele>83</ele>
<time>2015-08-01T20:36:01Z</time>
</trkpt>
<trkpt lat="53.3523418" lon="18.4497870">
<ele>83</ele>
<time>2015-08-01T20:36:03Z</time>
</trkpt>
<trkpt lat="53.3524714" lon="18.4496414">
<ele>83</ele>
<time>2015-08-01T20:36:05Z</time>
</trkpt>
<trkpt lat="53.3526138" lon="18.4494612">
<ele>81</ele>
<time>2015-08-01T20:36:07Z</time>
</trkpt>
<trkpt lat="53.3527671" lon="18.4492909">
<ele>80</ele>
<time>2015-08-01T20:36:09Z</time>
</trkpt>
<trkpt lat="53.3529173" lon="18.4491207">
<ele>78</ele>
<time>2015-08-01T20:36:11Z</time>
</trkpt>
<trkpt lat="53.3530578" lon="18.4488946">
<ele>76</ele>
<time>2015-08-01T20:36:13Z</time>
</trkpt>
<trkpt lat="53.3531845" lon="18.4485983">
<ele>75</ele>
<time>2015-08-01T20:36:15Z</time>
</trkpt>
<trkpt lat="53.3533178" lon="18.4482955">
<ele>73</ele>
<time>2015-08-01T20:36:17Z</time>
</trkpt>
<trkpt lat="53.3534358" lon="18.4479975">
<ele>72</ele>
<time>2015-08-01T20:36:19Z</time>
</trkpt>
<trkpt lat="53.3535507" lon="18.4476924">
<ele>73</ele>
<time>2015-08-01T20:36:21Z</time>
</trkpt>
<trkpt lat="53.3536472" lon="18.4473629">
<ele>71</ele>
<time>2015-08-01T20:36:23Z</time>
</trkpt>
<trkpt lat="53.3536906" lon="18.4470269">
<ele>69</ele>
<time>2015-08-01T20:36:25Z</time>
</trkpt>
<trkpt lat="53.3537014" lon="18.4467259">
<ele>68</ele>
<time>2015-08-01T20:36:27Z</time>
</trkpt>
<trkpt lat="53.3537109" lon="18.4464320">
<ele>67</ele>
<time>2015-08-01T20:36:29Z</time>
</trkpt>
<trkpt lat="53.353711" lon="18.4461457">
<ele>67</ele>
<time>2015-08-01T20:36:31Z</time>
</trkpt>
<trkpt lat="53.3537040" lon="18.4458879">
<ele>66</ele>
<time>2015-08-01T20:36:33Z</time>
</trkpt>
<trkpt lat="53.3536965" lon="18.4456631">
<ele>66</ele>
<time>2015-08-01T20:36:35Z</time>
</trkpt>
<trkpt lat="53.3536979" lon="18.4454371">
<ele>66</ele>
<time>2015-08-01T20:36:37Z</time>
</trkpt>
<trkpt lat="53.3537267" lon="18.4452133">
<ele>66</ele>
<time>2015-08-01T20:36:39Z</time>
</trkpt>
<trkpt lat="53.3537480" lon="18.4450025">
<ele>67</ele>
<time>2015-08-01T20:36:41Z</time>
</trkpt>
<trkpt lat="53.3537873" lon="18.4448006">
<ele>67</ele>
<time>2015-08-01T20:36:43Z</time>
</trkpt>
<trkpt lat="53.3538233" lon="18.4445845">
<ele>67</ele>
<time>2015-08-01T20:36:45Z</time>
</trkpt>
<trkpt lat="53.3538557" lon="18.4443788">
<ele>67</ele>
<time>2015-08-01T20:36:47Z</time>
</trkpt>
<trkpt lat="53.3538889" lon="18.4441737">
<ele>67</ele>
<time>2015-08-01T20:36:49Z</time>
</trkpt>
<trkpt lat="53.3539271" lon="18.4439721">
<ele>66</ele>
<time>2015-08-01T20:36:51Z</time>
</trkpt>
<trkpt lat="53.3539654" lon="18.4437596">
<ele>66</ele>
<time>2015-08-01T20:36:53Z</time>
</trkpt>
<trkpt lat="53.354001" lon="18.4435244">
<ele>66</ele>
<time>2015-08-01T20:36:55Z</time>
</trkpt>
<trkpt lat="53.3540465" lon="18.4432937">
<ele>65</ele>
<time>2015-08-01T20:36:57Z</time>
</trkpt>
<trkpt lat="53.3540830" lon="18.4430612">
<ele>65</ele>
<time>2015-08-01T20:36:59Z</time>
</trkpt>
<trkpt lat="53.3541218" lon="18.4428201">
<ele>65</ele>
<time>2015-08-01T20:37:01Z</time>
</trkpt>
<trkpt lat="53.3541537" lon="18.4425860">
<ele>65</ele>
<time>2015-08-01T20:37:03Z</time>
</trkpt>
<trkpt lat="53.3541906" lon="18.4423702">
<ele>65</ele>
<time>2015-08-01T20:37:05Z</time>
</trkpt>
<trkpt lat="53.3542210" lon="18.4421610">
<ele>65</ele>
<time>2015-08-01T20:37:07Z</time>
</trkpt>
<trkpt lat="53.3542531" lon="18.4419522">
<ele>65</ele>
<time>2015-08-01T20:37:09Z</time>
</trkpt>
<trkpt lat="53.3542801" lon="18.4417449">
<ele>65</ele>
<time>2015-08-01T20:37:11Z</time>
</trkpt>
<trkpt lat="53.3542834" lon="18.4415376">
<ele>65</ele>
<time>2015-08-01T20:37:13Z</time>
</trkpt>
<trkpt lat="53.3542764" lon="18.4413226">
<ele>65</ele>
<time>2015-08-01T20:37:15Z</time>
</trkpt>
<trkpt lat="53.3542569" lon="18.4410974">
<ele>65</ele>
<time>2015-08-01T20:37:17Z</time>
</trkpt>
<trkpt lat="53.3542436" lon="18.4408821">
<ele>65</ele>
<time>2015-08-01T20:37:19Z</time>
</trkpt>
<trkpt lat="53.3542417" lon="18.4406857">
<ele>64</ele>
<time>2015-08-01T20:37:21Z</time>
</trkpt>
<trkpt lat="53.3542377" lon="18.4404921">
<ele>63</ele>
<time>2015-08-01T20:37:23Z</time>
</trkpt>
<trkpt lat="53.3542379" lon="18.4402737">
<ele>63</ele>
<time>2015-08-01T20:37:25Z</time>
</trkpt>
<trkpt lat="53.3542503" lon="18.4400473">
<ele>62</ele>
<time>2015-08-01T20:37:27Z</time>
</trkpt>
<trkpt lat="53.3542638" lon="18.4398170">
<ele>63</ele>
<time>2015-08-01T20:37:29Z</time>
</trkpt>
<trkpt lat="53.3542757" lon="18.4395733">
<ele>62</ele>
<time>2015-08-01T20:37:31Z</time>
</trkpt>
<trkpt lat="53.3542909" lon="18.4393227">
<ele>63</ele>
<time>2015-08-01T20:37:33Z</time>
</trkpt>
<trkpt lat="53.3543076" lon="18.4390659">
<ele>63</ele>
<time>2015-08-01T20:37:35Z</time>
</trkpt>
<trkpt lat="53.3543268" lon="18.4388269">
<ele>63</ele>
<time>2015-08-01T20:37:37Z</time>
</trkpt>
<trkpt lat="53.3543451" lon="18.4385994">
<ele>63</ele>
<time>2015-08-01T20:37:39Z</time>
</trkpt>
<trkpt lat="53.3543620" lon="18.4383719">
<ele>63</ele>
<time>2015-08-01T20:37:41Z</time>
</trkpt>
<trkpt lat="53.3543734" lon="18.4381406">
<ele>63</ele>
<time>2015-08-01T20:37:43Z</time>
</trkpt>
<trkpt lat="53.3543768" lon="18.4379158">
<ele>63</ele>
<time>2015-08-01T20:37:45Z</time>
</trkpt>
<trkpt lat="53.3543902" lon="18.4377030">
<ele>63</ele>
<time>2015-08-01T20:37:47Z</time>
</trkpt>
<trkpt lat="53.3544012" lon="18.4374856">
<ele>62</ele>
<time>2015-08-01T20:37:49Z</time>
</trkpt>
<trkpt lat="53.3544111" lon="18.4372678">
<ele>70</ele>
<time>2015-08-01T20:37:51Z</time>
</trkpt>
<trkpt lat="53.3544225" lon="18.4370534">
<ele>65</ele>
<time>2015-08-01T20:37:53Z</time>
</trkpt>
<trkpt lat="53.3544325" lon="18.4368527">
<ele>63</ele>
<time>2015-08-01T20:37:55Z</time>
</trkpt>
<trkpt lat="53.3544402" lon="18.4366425">
<ele>62</ele>
<time>2015-08-01T20:37:57Z</time>
</trkpt>
<trkpt lat="53.3544578" lon="18.4364284">
<ele>61</ele>
<time>2015-08-01T20:37:59Z</time>
</trkpt>
<trkpt lat="53.3544764" lon="18.4362197">
<ele>61</ele>
<time>2015-08-01T20:38:01Z</time>
</trkpt>
<trkpt lat="53.3544897" lon="18.4360130">
<ele>61</ele>
<time>2015-08-01T20:38:03Z</time>
</trkpt>
<trkpt lat="53.3545086" lon="18.4358004">
<ele>62</ele>
<time>2015-08-01T20:38:05Z</time>
</trkpt>
<trkpt lat="53.3545300" lon="18.4355689">
<ele>62</ele>
<time>2015-08-01T20:38:07Z</time>
</trkpt>
<trkpt lat="53.3545490" lon="18.4353430">
<ele>61</ele>
<time>2015-08-01T20:38:09Z</time>
</trkpt>
<trkpt lat="53.3545690" lon="18.4351160">
<ele>61</ele>
<time>2015-08-01T20:38:11Z</time>
</trkpt>
<trkpt lat="53.3545870" lon="18.4348825">
<ele>60</ele>
<time>2015-08-01T20:38:13Z</time>
</trkpt>
<trkpt lat="53.3546017" lon="18.4346327">
<ele>61</ele>
<time>2015-08-01T20:38:15Z</time>
</trkpt>
<trkpt lat="53.3546181" lon="18.4344075">
<ele>60</ele>
<time>2015-08-01T20:38:17Z</time>
</trkpt>
<trkpt lat="53.3546264" lon="18.4341719">
<ele>61</ele>
<time>2015-08-01T20:38:19Z</time>
</trkpt>
<trkpt lat="53.3546463" lon="18.4339505">
<ele>61</ele>
<time>2015-08-01T20:38:21Z</time>
</trkpt>
<trkpt lat="53.3546643" lon="18.4337332">
<ele>61</ele>
<time>2015-08-01T20:38:23Z</time>
</trkpt>
<trkpt lat="53.3546767" lon="18.4335168">
<ele>61</ele>
<time>2015-08-01T20:38:25Z</time>
</trkpt>
<trkpt lat="53.3546710" lon="18.4333145">
<ele>61</ele>
<time>2015-08-01T20:38:27Z</time>
</trkpt>
<trkpt lat="53.3546542" lon="18.4331169">
<ele>62</ele>
<time>2015-08-01T20:38:29Z</time>
</trkpt>
<trkpt lat="53.3546272" lon="18.4329127">
<ele>63</ele>
<time>2015-08-01T20:38:31Z</time>
</trkpt>
<trkpt lat="53.3545925" lon="18.4327164">
<ele>63</ele>
<time>2015-08-01T20:38:33Z</time>
</trkpt>
<trkpt lat="53.3545584" lon="18.4325346">
<ele>63</ele>
<time>2015-08-01T20:38:35Z</time>
</trkpt>
<trkpt lat="53.3545235" lon="18.4323274">
<ele>63</ele>
<time>2015-08-01T20:38:37Z</time>
</trkpt>
<trkpt lat="53.3544830" lon="18.4321265">
<ele>64</ele>
<time>2015-08-01T20:38:39Z</time>
</trkpt>
<trkpt lat="53.3544462" lon="18.4319286">
<ele>64</ele>
<time>2015-08-01T20:38:41Z</time>
</trkpt>
<trkpt lat="53.3544123" lon="18.4317376">
<ele>64</ele>
<time>2015-08-01T20:38:43Z</time>
</trkpt>
<trkpt lat="53.3543794" lon="18.4315496">
<ele>64</ele>
<time>2015-08-01T20:38:45Z</time>
</trkpt>
<trkpt lat="53.3543489" lon="18.4313529">
<ele>64</ele>
<time>2015-08-01T20:38:47Z</time>
</trkpt>
<trkpt lat="53.3543173" lon="18.4311589">
<ele>65</ele>
<time>2015-08-01T20:38:49Z</time>
</trkpt>
<trkpt lat="53.3542927" lon="18.4309857">
<ele>64</ele>
<time>2015-08-01T20:38:51Z</time>
</trkpt>
<trkpt lat="53.3542455" lon="18.4308021">
<ele>64</ele>
<time>2015-08-01T20:38:53Z</time>
</trkpt>
<trkpt lat="53.3542192" lon="18.4305926">
<ele>64</ele>
<time>2015-08-01T20:38:55Z</time>
</trkpt>
<trkpt lat="53.3541835" lon="18.4303834">
<ele>63</ele>
<time>2015-08-01T20:38:57Z</time>
</trkpt>
<trkpt lat="53.3541491" lon="18.4301677">
<ele>64</ele>
<time>2015-08-01T20:38:59Z</time>
</trkpt>
<trkpt lat="53.3541187" lon="18.4299388">
<ele>64</ele>
<time>2015-08-01T20:39:01Z</time>
</trkpt>
<trkpt lat="53.3540650" lon="18.4295261">
<ele>65</ele>
<time>2015-08-01T20:39:05Z</time>
</trkpt>
<trkpt lat="53.3540406" lon="18.4293453">
<ele>65</ele>
<time>2015-08-01T20:39:07Z</time>
</trkpt>
<trkpt lat="53.3540175" lon="18.4291689">
<ele>66</ele>
<time>2015-08-01T20:39:09Z</time>
</trkpt>
<trkpt lat="53.3539923" lon="18.4289838">
<ele>66</ele>
<time>2015-08-01T20:39:11Z</time>
</trkpt>
<trkpt lat="53.3539707" lon="18.4288098">
<ele>66</ele>
<time>2015-08-01T20:39:13Z</time>
</trkpt>
<trkpt lat="53.3539474" lon="18.4286381">
<ele>67</ele>
<time>2015-08-01T20:39:15Z</time>
</trkpt>
<trkpt lat="53.3539262" lon="18.4284734">
<ele>73</ele>
<time>2015-08-01T20:39:17Z</time>
</trkpt>
<trkpt lat="53.3538902" lon="18.4283216">
<ele>70</ele>
<time>2015-08-01T20:39:19Z</time>
</trkpt>
<trkpt lat="53.3538435" lon="18.4281928">
<ele>69</ele>
<time>2015-08-01T20:39:21Z</time>
</trkpt>
<trkpt lat="53.3538035" lon="18.4280652">
<ele>69</ele>
<time>2015-08-01T20:39:23Z</time>
</trkpt>
<trkpt lat="53.3537830" lon="18.4279239">
<ele>67</ele>
<time>2015-08-01T20:39:25Z</time>
</trkpt>
<trkpt lat="53.3538525" lon="18.4278282">
<ele>68</ele>
<time>2015-08-01T20:39:27Z</time>
</trkpt>
<trkpt lat="53.3539472" lon="18.4277337">
<ele>67</ele>
<time>2015-08-01T20:39:29Z</time>
</trkpt>
<trkpt lat="53.3540516" lon="18.4276297">
<ele>67</ele>
<time>2015-08-01T20:39:31Z</time>
</trkpt>
<trkpt lat="53.3541658" lon="18.4275334">
<ele>66</ele>
<time>2015-08-01T20:39:33Z</time>
</trkpt>
<trkpt lat="53.3542698" lon="18.4274240">
<ele>66</ele>
<time>2015-08-01T20:39:35Z</time>
</trkpt>
<trkpt lat="53.3543579" lon="18.4273365">
<ele>65</ele>
<time>2015-08-01T20:39:37Z</time>
</trkpt>
<trkpt lat="53.3543951" lon="18.4272606">
<ele>65</ele>
<time>2015-08-01T20:39:39Z</time>
</trkpt>
<trkpt lat="53.3543557" lon="18.4271798">
<ele>65</ele>
<time>2015-08-01T20:39:41Z</time>
</trkpt>
<trkpt lat="53.3542832" lon="18.4272010">
<ele>65</ele>
<time>2015-08-01T20:39:43Z</time>
</trkpt>
<trkpt lat="53.3542123" lon="18.4272467">
<ele>65</ele>
<time>2015-08-01T20:39:45Z</time>
</trkpt>
<trkpt lat="53.3541575" lon="18.4272013">
<ele>64</ele>
<time>2015-08-01T20:39:47Z</time>
</trkpt>
<trkpt lat="53.3541139" lon="18.4270762">
<ele>64</ele>
<time>2015-08-01T20:39:49Z</time>
</trkpt>
<trkpt lat="53.3540446" lon="18.4269569">
<ele>64</ele>
<time>2015-08-01T20:39:51Z</time>
</trkpt>
<trkpt lat="53.3539873" lon="18.4268283">
<ele>64</ele>
<time>2015-08-01T20:39:53Z</time>
</trkpt>
<trkpt lat="53.3539414" lon="18.4267201">
<ele>64</ele>
<time>2015-08-01T20:39:55Z</time>
</trkpt>
<trkpt lat="53.3538909" lon="18.4266356">
<ele>64</ele>
<time>2015-08-01T20:39:57Z</time>
</trkpt>
<trkpt lat="53.3538469" lon="18.4265235">
<ele>64</ele>
<time>2015-08-01T20:39:59Z</time>
</trkpt>
<trkpt lat="53.3538032" lon="18.4264034">
<ele>64</ele>
<time>2015-08-01T20:40:01Z</time>
</trkpt>
<trkpt lat="53.3537032" lon="18.4261221">
<ele>64</ele>
<time>2015-08-01T20:40:05Z</time>
</trkpt>
<trkpt lat="53.3536427" lon="18.4259767">
<ele>64</ele>
<time>2015-08-01T20:40:07Z</time>
</trkpt>
<trkpt lat="53.3535913" lon="18.4258160">
<ele>63</ele>
<time>2015-08-01T20:40:09Z</time>
</trkpt>
<trkpt lat="53.3535460" lon="18.4256599">
<ele>64</ele>
<time>2015-08-01T20:40:11Z</time>
</trkpt>
<trkpt lat="53.3534855" lon="18.4254787">
<ele>63</ele>
<time>2015-08-01T20:40:13Z</time>
</trkpt>
<trkpt lat="53.3534259" lon="18.4252834">
<ele>64</ele>
<time>2015-08-01T20:40:15Z</time>
</trkpt>
<trkpt lat="53.3533723" lon="18.4250779">
<ele>63</ele>
<time>2015-08-01T20:40:17Z</time>
</trkpt>
<trkpt lat="53.3533311" lon="18.4248747">
<ele>63</ele>
<time>2015-08-01T20:40:19Z</time>
</trkpt>
<trkpt lat="53.3532868" lon="18.4246795">
<ele>63</ele>
<time>2015-08-01T20:40:21Z</time>
</trkpt>
<trkpt lat="53.3532487" lon="18.4244821">
<ele>62</ele>
<time>2015-08-01T20:40:23Z</time>
</trkpt>
<trkpt lat="53.3532172" lon="18.4242952">
<ele>62</ele>
<time>2015-08-01T20:40:25Z</time>
</trkpt>
<trkpt lat="53.3531674" lon="18.4241112">
<ele>63</ele>
<time>2015-08-01T20:40:27Z</time>
</trkpt>
<trkpt lat="53.3531240" lon="18.4239057">
<ele>63</ele>
<time>2015-08-01T20:40:29Z</time>
</trkpt>
<trkpt lat="53.3530775" lon="18.4237042">
<ele>63</ele>
<time>2015-08-01T20:40:31Z</time>
</trkpt>
<trkpt lat="53.3530400" lon="18.4235321">
<ele>63</ele>
<time>2015-08-01T20:40:33Z</time>
</trkpt>
<trkpt lat="53.3529931" lon="18.4233504">
<ele>62</ele>
<time>2015-08-01T20:40:35Z</time>
</trkpt>
<trkpt lat="53.3529431" lon="18.4231736">
<ele>63</ele>
<time>2015-08-01T20:40:37Z</time>
</trkpt>
<trkpt lat="53.3528879" lon="18.4230004">
<ele>63</ele>
<time>2015-08-01T20:40:39Z</time>
</trkpt>
<trkpt lat="53.3528486" lon="18.4228572">
<ele>63</ele>
<time>2015-08-01T20:40:41Z</time>
</trkpt>
<trkpt lat="53.3528260" lon="18.4228015">
<ele>64</ele>
<time>2015-08-01T20:40:43Z</time>
</trkpt>
<trkpt lat="53.3528141" lon="18.4227477">
<ele>63</ele>
<time>2015-08-01T20:40:45Z</time>
</trkpt>
<trkpt lat="53.3527811" lon="18.4226497">
<ele>63</ele>
<time>2015-08-01T20:40:47Z</time>
</trkpt>
<trkpt lat="53.3527422" lon="18.4225311">
<ele>63</ele>
<time>2015-08-01T20:40:49Z</time>
</trkpt>
<trkpt lat="53.3527042" lon="18.4223913">
<ele>62</ele>
<time>2015-08-01T20:40:51Z</time>
</trkpt>
<trkpt lat="53.3526498" lon="18.4222388">
<ele>63</ele>
<time>2015-08-01T20:40:53Z</time>
</trkpt>
<trkpt lat="53.3526117" lon="18.4220844">
<ele>63</ele>
<time>2015-08-01T20:40:55Z</time>
</trkpt>
<trkpt lat="53.3525801" lon="18.4219503">
<ele>63</ele>
<time>2015-08-01T20:40:57Z</time>
</trkpt>
<trkpt lat="53.3525515" lon="18.4218239">
<ele>63</ele>
<time>2015-08-01T20:40:59Z</time>
</trkpt>
<trkpt lat="53.3525174" lon="18.4216938">
<ele>64</ele>
<time>2015-08-01T20:41:01Z</time>
</trkpt>
<trkpt lat="53.3524768" lon="18.4215464">
<ele>64</ele>
<time>2015-08-01T20:41:03Z</time>
</trkpt>
<trkpt lat="53.3524455" lon="18.4214079">
<ele>64</ele>
<time>2015-08-01T20:41:05Z</time>
</trkpt>
<trkpt lat="53.3524111" lon="18.4212779">
<ele>64</ele>
<time>2015-08-01T20:41:07Z</time>
</trkpt>
<trkpt lat="53.3523875" lon="18.4211741">
<ele>64</ele>
<time>2015-08-01T20:41:09Z</time>
</trkpt>
<trkpt lat="53.3524052" lon="18.4210683">
<ele>63</ele>
<time>2015-08-01T20:41:11Z</time>
</trkpt>
<trkpt lat="53.3524429" lon="18.4209843">
<ele>63</ele>
<time>2015-08-01T20:41:13Z</time>
</trkpt>
<trkpt lat="53.3524843" lon="18.4209440">
<ele>62</ele>
<time>2015-08-01T20:41:15Z</time>
</trkpt>
<trkpt lat="53.3525469" lon="18.4209069">
<ele>62</ele>
<time>2015-08-01T20:41:17Z</time>
</trkpt>
<trkpt lat="53.3526154" lon="18.4208744">
<ele>62</ele>
<time>2015-08-01T20:41:19Z</time>
</trkpt>
<trkpt lat="53.3526794" lon="18.4208653">
<ele>61</ele>
<time>2015-08-01T20:41:21Z</time>
</trkpt>
<trkpt lat="53.3527329" lon="18.4208783">
<ele>61</ele>
<time>2015-08-01T20:41:23Z</time>
</trkpt>
<trkpt lat="53.3527906" lon="18.4208659">
<ele>61</ele>
<time>2015-08-01T20:41:25Z</time>
</trkpt>
<trkpt lat="53.3528542" lon="18.4208141">
<ele>60</ele>
<time>2015-08-01T20:41:27Z</time>
</trkpt>
<trkpt lat="53.3529053" lon="18.4207278">
<ele>59</ele>
<time>2015-08-01T20:41:29Z</time>
</trkpt>
<trkpt lat="53.3529295" lon="18.4206139">
<ele>59</ele>
<time>2015-08-01T20:41:31Z</time>
</trkpt>
<trkpt lat="53.3529381" lon="18.4204787">
<ele>59</ele>
<time>2015-08-01T20:41:33Z</time>
</trkpt>
<trkpt lat="53.3529463" lon="18.4202640">
<ele>58</ele>
<time>2015-08-01T20:41:35Z</time>
</trkpt>
<trkpt lat="53.3529693" lon="18.4200612">
<ele>59</ele>
<time>2015-08-01T20:41:37Z</time>
</trkpt>
<trkpt lat="53.3529941" lon="18.4198700">
<ele>59</ele>
<time>2015-08-01T20:41:39Z</time>
</trkpt>
<trkpt lat="53.3530115" lon="18.4196774">
<ele>60</ele>
<time>2015-08-01T20:41:41Z</time>
</trkpt>
<trkpt lat="53.3530282" lon="18.4194770">
<ele>59</ele>
<time>2015-08-01T20:41:43Z</time>
</trkpt>
<trkpt lat="53.3530207" lon="18.4193093">
<ele>59</ele>
<time>2015-08-01T20:41:45Z</time>
</trkpt>
<trkpt lat="53.3530152" lon="18.4191543">
<ele>59</ele>
<time>2015-08-01T20:41:47Z</time>
</trkpt>
<trkpt lat="53.3529951" lon="18.4189694">
<ele>59</ele>
<time>2015-08-01T20:41:49Z</time>
</trkpt>
<trkpt lat="53.3529721" lon="18.4187668">
<ele>60</ele>
<time>2015-08-01T20:41:51Z</time>
</trkpt>
<trkpt lat="53.3529450" lon="18.4185744">
<ele>61</ele>
<time>2015-08-01T20:41:53Z</time>
</trkpt>
<trkpt lat="53.3529220" lon="18.4183899">
<ele>60</ele>
<time>2015-08-01T20:41:55Z</time>
</trkpt>
<trkpt lat="53.3528925" lon="18.4181844">
<ele>61</ele>
<time>2015-08-01T20:41:57Z</time>
</trkpt>
<trkpt lat="53.3528548" lon="18.4179924">
<ele>61</ele>
<time>2015-08-01T20:41:59Z</time>
</trkpt>
<trkpt lat="53.3528256" lon="18.4178617">
<ele>61</ele>
<time>2015-08-01T20:42:01Z</time>
</trkpt>
<trkpt lat="53.3528519" lon="18.4177200">
<ele>61</ele>
<time>2015-08-01T20:42:05Z</time>
</trkpt>
<trkpt lat="53.3529053" lon="18.4176967">
<ele>60</ele>
<time>2015-08-01T20:42:07Z</time>
</trkpt>
<trkpt lat="53.3529723" lon="18.4177049">
<ele>60</ele>
<time>2015-08-01T20:42:09Z</time>
</trkpt>
<trkpt lat="53.3530420" lon="18.4176831">
<ele>60</ele>
<time>2015-08-01T20:42:11Z</time>
</trkpt>
<trkpt lat="53.3531202" lon="18.4176518">
<ele>60</ele>
<time>2015-08-01T20:42:13Z</time>
</trkpt>
<trkpt lat="53.3532212" lon="18.4176030">
<ele>61</ele>
<time>2015-08-01T20:42:15Z</time>
</trkpt>
<trkpt lat="53.3533188" lon="18.417555">
<ele>61</ele>
<time>2015-08-01T20:42:17Z</time>
</trkpt>
<trkpt lat="53.3534214" lon="18.4175322">
<ele>61</ele>
<time>2015-08-01T20:42:19Z</time>
</trkpt>
<trkpt lat="53.3535233" lon="18.4174966">
<ele>61</ele>
<time>2015-08-01T20:42:21Z</time>
</trkpt>
<trkpt lat="53.3536091" lon="18.4174495">
<ele>61</ele>
<time>2015-08-01T20:42:23Z</time>
</trkpt>
<trkpt lat="53.3536885" lon="18.4174142">
<ele>61</ele>
<time>2015-08-01T20:42:25Z</time>
</trkpt>
<trkpt lat="53.3537674" lon="18.4173656">
<ele>61</ele>
<time>2015-08-01T20:42:27Z</time>
</trkpt>
<trkpt lat="53.3538606" lon="18.4173204">
<ele>61</ele>
<time>2015-08-01T20:42:29Z</time>
</trkpt>
<trkpt lat="53.3539644" lon="18.4172812">
<ele>60</ele>
<time>2015-08-01T20:42:31Z</time>
</trkpt>
<trkpt lat="53.3540560" lon="18.4172489">
<ele>60</ele>
<time>2015-08-01T20:42:33Z</time>
</trkpt>
<trkpt lat="53.354142" lon="18.4172157">
<ele>61</ele>
<time>2015-08-01T20:42:35Z</time>
</trkpt>
<trkpt lat="53.3542252" lon="18.4171882">
<ele>61</ele>
<time>2015-08-01T20:42:37Z</time>
</trkpt>
<trkpt lat="53.3543097" lon="18.4171390">
<ele>61</ele>
<time>2015-08-01T20:42:39Z</time>
</trkpt>
<trkpt lat="53.3543973" lon="18.4171049">
<ele>60</ele>
<time>2015-08-01T20:42:41Z</time>
</trkpt>
<trkpt lat="53.3544800" lon="18.4170700">
<ele>60</ele>
<time>2015-08-01T20:42:43Z</time>
</trkpt>
<trkpt lat="53.3545564" lon="18.4170227">
<ele>59</ele>
<time>2015-08-01T20:42:45Z</time>
</trkpt>
<trkpt lat="53.3546305" lon="18.4169729">
<ele>60</ele>
<time>2015-08-01T20:42:47Z</time>
</trkpt>
<trkpt lat="53.3547057" lon="18.4169451">
<ele>60</ele>
<time>2015-08-01T20:42:49Z</time>
</trkpt>
<trkpt lat="53.3547760" lon="18.4169112">
<ele>60</ele>
<time>2015-08-01T20:42:51Z</time>
</trkpt>
<trkpt lat="53.3548533" lon="18.4168722">
<ele>60</ele>
<time>2015-08-01T20:42:53Z</time>
</trkpt>
<trkpt lat="53.3549328" lon="18.4168315">
<ele>60</ele>
<time>2015-08-01T20:42:55Z</time>
</trkpt>
<trkpt lat="53.3550025" lon="18.4167949">
<ele>61</ele>
<time>2015-08-01T20:42:57Z</time>
</trkpt>
<trkpt lat="53.3550478" lon="18.4167718">
<ele>61</ele>
<time>2015-08-01T20:42:59Z</time>
</trkpt>
<trkpt lat="53.3550870" lon="18.4167539">
<ele>60</ele>
<time>2015-08-01T20:43:01Z</time>
</trkpt>
<trkpt lat="53.3551232" lon="18.4167207">
<ele>60</ele>
<time>2015-08-01T20:43:03Z</time>
</trkpt>
<trkpt lat="53.3551641" lon="18.4166925">
<ele>59</ele>
<time>2015-08-01T20:43:05Z</time>
</trkpt>
<trkpt lat="53.3552091" lon="18.4166686">
<ele>59</ele>
<time>2015-08-01T20:43:07Z</time>
</trkpt>
<trkpt lat="53.3552573" lon="18.4166486">
<ele>59</ele>
<time>2015-08-01T20:43:09Z</time>
</trkpt>
<trkpt lat="53.3553059" lon="18.4166362">
<ele>59</ele>
<time>2015-08-01T20:43:11Z</time>
</trkpt>
<trkpt lat="53.3553485" lon="18.4166266">
<ele>59</ele>
<time>2015-08-01T20:43:13Z</time>
</trkpt>
<trkpt lat="53.3553579" lon="18.4165968">
<ele>58</ele>
<time>2015-08-01T20:43:15Z</time>
</trkpt>
<trkpt lat="53.3553213" lon="18.4165968">
<ele>58</ele>
<time>2015-08-01T20:43:17Z</time>
</trkpt>
<trkpt lat="53.3552694" lon="18.4166296">
<ele>57</ele>
<time>2015-08-01T20:43:19Z</time>
</trkpt>
<trkpt lat="53.3551997" lon="18.4166685">
<ele>57</ele>
<time>2015-08-01T20:43:21Z</time>
</trkpt>
<trkpt lat="53.3551315" lon="18.4167009">
<ele>56</ele>
<time>2015-08-01T20:43:23Z</time>
</trkpt>
<trkpt lat="53.3550577" lon="18.4167437">
<ele>56</ele>
<time>2015-08-01T20:43:25Z</time>
</trkpt>
<trkpt lat="53.3549783" lon="18.4167977">
<ele>56</ele>
<time>2015-08-01T20:43:27Z</time>
</trkpt>
<trkpt lat="53.3548941" lon="18.4168347">
<ele>56</ele>
<time>2015-08-01T20:43:29Z</time>
</trkpt>
<trkpt lat="53.354796" lon="18.4168749">
<ele>57</ele>
<time>2015-08-01T20:43:31Z</time>
</trkpt>
<trkpt lat="53.3547099" lon="18.4168920">
<ele>56</ele>
<time>2015-08-01T20:43:33Z</time>
</trkpt>
<trkpt lat="53.3546240" lon="18.4169262">
<ele>56</ele>
<time>2015-08-01T20:43:35Z</time>
</trkpt>
<trkpt lat="53.3545282" lon="18.4169684">
<ele>56</ele>
<time>2015-08-01T20:43:37Z</time>
</trkpt>
<trkpt lat="53.3544339" lon="18.417018">
<ele>56</ele>
<time>2015-08-01T20:43:39Z</time>
</trkpt>
<trkpt lat="53.3543424" lon="18.4170744">
<ele>57</ele>
<time>2015-08-01T20:43:41Z</time>
</trkpt>
<trkpt lat="53.3542467" lon="18.4171151">
<ele>57</ele>
<time>2015-08-01T20:43:43Z</time>
</trkpt>
<trkpt lat="53.3541491" lon="18.4171474">
<ele>57</ele>
<time>2015-08-01T20:43:45Z</time>
</trkpt>
<trkpt lat="53.3540581" lon="18.4171782">
<ele>57</ele>
<time>2015-08-01T20:43:47Z</time>
</trkpt>
<trkpt lat="53.3539587" lon="18.4172318">
<ele>57</ele>
<time>2015-08-01T20:43:49Z</time>
</trkpt>
<trkpt lat="53.3538588" lon="18.4172708">
<ele>57</ele>
<time>2015-08-01T20:43:51Z</time>
</trkpt>
<trkpt lat="53.3537690" lon="18.4173064">
<ele>58</ele>
<time>2015-08-01T20:43:53Z</time>
</trkpt>
<trkpt lat="53.3536927" lon="18.4173499">
<ele>58</ele>
<time>2015-08-01T20:43:55Z</time>
</trkpt>
<trkpt lat="53.3536167" lon="18.4173906">
<ele>57</ele>
<time>2015-08-01T20:43:57Z</time>
</trkpt>
<trkpt lat="53.3535392" lon="18.4174537">
<ele>57</ele>
<time>2015-08-01T20:43:59Z</time>
</trkpt>
<trkpt lat="53.353448" lon="18.4175170">
<ele>57</ele>
<time>2015-08-01T20:44:01Z</time>
</trkpt>
<trkpt lat="53.3533562" lon="18.4175322">
<ele>58</ele>
<time>2015-08-01T20:44:03Z</time>
</trkpt>
<trkpt lat="53.3532591" lon="18.4175493">
<ele>58</ele>
<time>2015-08-01T20:44:05Z</time>
</trkpt>
<trkpt lat="53.3531656" lon="18.4176293">
<ele>58</ele>
<time>2015-08-01T20:44:07Z</time>
</trkpt>
<trkpt lat="53.3530601" lon="18.4176738">
<ele>58</ele>
<time>2015-08-01T20:44:09Z</time>
</trkpt>
<trkpt lat="53.3529588" lon="18.4177088">
<ele>58</ele>
<time>2015-08-01T20:44:11Z</time>
</trkpt>
<trkpt lat="53.3528655" lon="18.4177172">
<ele>58</ele>
<time>2015-08-01T20:44:13Z</time>
</trkpt>
<trkpt lat="53.3528026" lon="18.4176877">
<ele>59</ele>
<time>2015-08-01T20:44:15Z</time>
</trkpt>
<trkpt lat="53.3527749" lon="18.4176005">
<ele>59</ele>
<time>2015-08-01T20:44:17Z</time>
</trkpt>
<trkpt lat="53.3527566" lon="18.4174847">
<ele>58</ele>
<time>2015-08-01T20:44:19Z</time>
</trkpt>
<trkpt lat="53.3527498" lon="18.4173249">
<ele>58</ele>
<time>2015-08-01T20:44:21Z</time>
</trkpt>
<trkpt lat="53.3527515" lon="18.4171304">
<ele>59</ele>
<time>2015-08-01T20:44:23Z</time>
</trkpt>
<trkpt lat="53.3527347" lon="18.4169203">
<ele>60</ele>
<time>2015-08-01T20:44:25Z</time>
</trkpt>
<trkpt lat="53.3527257" lon="18.4166919">
<ele>60</ele>
<time>2015-08-01T20:44:27Z</time>
</trkpt>
<trkpt lat="53.3527176" lon="18.4164410">
<ele>60</ele>
<time>2015-08-01T20:44:29Z</time>
</trkpt>
<trkpt lat="53.3527069" lon="18.4161699">
<ele>60</ele>
<time>2015-08-01T20:44:31Z</time>
</trkpt>
<trkpt lat="53.3526960" lon="18.4159091">
<ele>61</ele>
<time>2015-08-01T20:44:33Z</time>
</trkpt>
<trkpt lat="53.3526809" lon="18.4156680">
<ele>61</ele>
<time>2015-08-01T20:44:35Z</time>
</trkpt>
<trkpt lat="53.3526657" lon="18.4154259">
<ele>61</ele>
<time>2015-08-01T20:44:37Z</time>
</trkpt>
<trkpt lat="53.3526565" lon="18.4151625">
<ele>61</ele>
<time>2015-08-01T20:44:39Z</time>
</trkpt>
<trkpt lat="53.3526493" lon="18.4149153">
<ele>60</ele>
<time>2015-08-01T20:44:41Z</time>
</trkpt>
<trkpt lat="53.3526340" lon="18.4146837">
<ele>60</ele>
<time>2015-08-01T20:44:43Z</time>
</trkpt>
<trkpt lat="53.3525907" lon="18.4144778">
<ele>60</ele>
<time>2015-08-01T20:44:45Z</time>
</trkpt>
<trkpt lat="53.3525497" lon="18.4142901">
<ele>61</ele>
<time>2015-08-01T20:44:47Z</time>
</trkpt>
<trkpt lat="53.3525297" lon="18.4140856">
<ele>61</ele>
<time>2015-08-01T20:44:49Z</time>
</trkpt>
<trkpt lat="53.3525147" lon="18.4138981">
<ele>61</ele>
<time>2015-08-01T20:44:51Z</time>
</trkpt>
<trkpt lat="53.3524989" lon="18.4137119">
<ele>61</ele>
<time>2015-08-01T20:44:53Z</time>
</trkpt>
<trkpt lat="53.3524684" lon="18.4135328">
<ele>61</ele>
<time>2015-08-01T20:44:55Z</time>
</trkpt>
<trkpt lat="53.3524496" lon="18.4133741">
<ele>61</ele>
<time>2015-08-01T20:44:57Z</time>
</trkpt>
<trkpt lat="53.3524365" lon="18.4132065">
<ele>61</ele>
<time>2015-08-01T20:44:59Z</time>
</trkpt>
<trkpt lat="53.3524103" lon="18.4130396">
<ele>61</ele>
<time>2015-08-01T20:45:01Z</time>
</trkpt>
<trkpt lat="53.3523957" lon="18.4128799">
<ele>61</ele>
<time>2015-08-01T20:45:03Z</time>
</trkpt>
<trkpt lat="53.3523417" lon="18.4127303">
<ele>61</ele>
<time>2015-08-01T20:45:05Z</time>
</trkpt>
<trkpt lat="53.3522828" lon="18.4125778">
<ele>61</ele>
<time>2015-08-01T20:45:07Z</time>
</trkpt>
<trkpt lat="53.3522129" lon="18.4124173">
<ele>62</ele>
<time>2015-08-01T20:45:09Z</time>
</trkpt>
<trkpt lat="53.3521450" lon="18.4122649">
<ele>62</ele>
<time>2015-08-01T20:45:11Z</time>
</trkpt>
<trkpt lat="53.3520806" lon="18.4121238">
<ele>62</ele>
<time>2015-08-01T20:45:13Z</time>
</trkpt>
<trkpt lat="53.3520313" lon="18.4119988">
<ele>62</ele>
<time>2015-08-01T20:45:15Z</time>
</trkpt>
<trkpt lat="53.3519979" lon="18.4118894">
<ele>62</ele>
<time>2015-08-01T20:45:17Z</time>
</trkpt>
<trkpt lat="53.3519770" lon="18.4117984">
<ele>62</ele>
<time>2015-08-01T20:45:19Z</time>
</trkpt>
<trkpt lat="53.3519564" lon="18.4117198">
<ele>62</ele>
<time>2015-08-01T20:45:21Z</time>
</trkpt>
<trkpt lat="53.3519319" lon="18.4116209">
<ele>62</ele>
<time>2015-08-01T20:45:23Z</time>
</trkpt>
<trkpt lat="53.3519063" lon="18.4114942">
<ele>62</ele>
<time>2015-08-01T20:45:25Z</time>
</trkpt>
<trkpt lat="53.3518729" lon="18.4113591">
<ele>62</ele>
<time>2015-08-01T20:45:27Z</time>
</trkpt>
<trkpt lat="53.3518359" lon="18.4112121">
<ele>62</ele>
<time>2015-08-01T20:45:29Z</time>
</trkpt>
<trkpt lat="53.3517876" lon="18.4110850">
<ele>62</ele>
<time>2015-08-01T20:45:31Z</time>
</trkpt>
<trkpt lat="53.3517345" lon="18.4109567">
<ele>62</ele>
<time>2015-08-01T20:45:33Z</time>
</trkpt>
<trkpt lat="53.3516666" lon="18.4108276">
<ele>61</ele>
<time>2015-08-01T20:45:35Z</time>
</trkpt>
<trkpt lat="53.3515928" lon="18.4107005">
<ele>61</ele>
<time>2015-08-01T20:45:37Z</time>
</trkpt>
<trkpt lat="53.3515224" lon="18.4105909">
<ele>62</ele>
<time>2015-08-01T20:45:39Z</time>
</trkpt>
<trkpt lat="53.3514607" lon="18.4104680">
<ele>61</ele>
<time>2015-08-01T20:45:41Z</time>
</trkpt>
<trkpt lat="53.3513880" lon="18.4103373">
<ele>61</ele>
<time>2015-08-01T20:45:43Z</time>
</trkpt>
<trkpt lat="53.3513169" lon="18.4102253">
<ele>61</ele>
<time>2015-08-01T20:45:45Z</time>
</trkpt>
<trkpt lat="53.3512481" lon="18.4101418">
<ele>60</ele>
<time>2015-08-01T20:45:47Z</time>
</trkpt>
<trkpt lat="53.3511761" lon="18.4100821">
<ele>60</ele>
<time>2015-08-01T20:45:49Z</time>
</trkpt>
<trkpt lat="53.3510985" lon="18.4100661">
<ele>60</ele>
<time>2015-08-01T20:45:51Z</time>
</trkpt>
<trkpt lat="53.3510217" lon="18.4100959">
<ele>60</ele>
<time>2015-08-01T20:45:53Z</time>
</trkpt>
<trkpt lat="53.3509641" lon="18.4101778">
<ele>59</ele>
<time>2015-08-01T20:45:55Z</time>
</trkpt>
<trkpt lat="53.3509222" lon="18.4103059">
<ele>59</ele>
<time>2015-08-01T20:45:57Z</time>
</trkpt>
<trkpt lat="53.3508719" lon="18.4104550">
<ele>58</ele>
<time>2015-08-01T20:45:59Z</time>
</trkpt>
<trkpt lat="53.3508261" lon="18.4105891">
<ele>58</ele>
<time>2015-08-01T20:46:01Z</time>
</trkpt>
<trkpt lat="53.3507731" lon="18.4107358">
<ele>59</ele>
<time>2015-08-01T20:46:03Z</time>
</trkpt>
<trkpt lat="53.3507180" lon="18.4108931">
<ele>58</ele>
<time>2015-08-01T20:46:05Z</time>
</trkpt>
<trkpt lat="53.3506569" lon="18.4110623">
<ele>58</ele>
<time>2015-08-01T20:46:07Z</time>
</trkpt>
<trkpt lat="53.3505971" lon="18.4112254">
<ele>58</ele>
<time>2015-08-01T20:46:09Z</time>
</trkpt>
<trkpt lat="53.3505424" lon="18.4113744">
<ele>58</ele>
<time>2015-08-01T20:46:11Z</time>
</trkpt>
<trkpt lat="53.3504776" lon="18.4115305">
<ele>58</ele>
<time>2015-08-01T20:46:13Z</time>
</trkpt>
<trkpt lat="53.3504061" lon="18.4117047">
<ele>59</ele>
<time>2015-08-01T20:46:15Z</time>
</trkpt>
<trkpt lat="53.3503544" lon="18.4118544">
<ele>60</ele>
<time>2015-08-01T20:46:17Z</time>
</trkpt>
<trkpt lat="53.3502962" lon="18.4120134">
<ele>60</ele>
<time>2015-08-01T20:46:19Z</time>
</trkpt>
<trkpt lat="53.3502421" lon="18.4121780">
<ele>60</ele>
<time>2015-08-01T20:46:21Z</time>
</trkpt>
<trkpt lat="53.3501829" lon="18.4123428">
<ele>60</ele>
<time>2015-08-01T20:46:23Z</time>
</trkpt>
<trkpt lat="53.3501238" lon="18.4124885">
<ele>60</ele>
<time>2015-08-01T20:46:25Z</time>
</trkpt>
<trkpt lat="53.3500682" lon="18.4126077">
<ele>59</ele>
<time>2015-08-01T20:46:27Z</time>
</trkpt>
<trkpt lat="53.3500276" lon="18.4127623">
<ele>60</ele>
<time>2015-08-01T20:46:29Z</time>
</trkpt>
<trkpt lat="53.3499761" lon="18.4128998">
<ele>59</ele>
<time>2015-08-01T20:46:31Z</time>
</trkpt>
<trkpt lat="53.3499230" lon="18.4130323">
<ele>60</ele>
<time>2015-08-01T20:46:33Z</time>
</trkpt>
<trkpt lat="53.3498747" lon="18.4131716">
<ele>61</ele>
<time>2015-08-01T20:46:35Z</time>
</trkpt>
<trkpt lat="53.3498177" lon="18.4133037">
<ele>61</ele>
<time>2015-08-01T20:46:37Z</time>
</trkpt>
<trkpt lat="53.349771" lon="18.4134488">
<ele>61</ele>
<time>2015-08-01T20:46:39Z</time>
</trkpt>
<trkpt lat="53.3497196" lon="18.4135915">
<ele>61</ele>
<time>2015-08-01T20:46:41Z</time>
</trkpt>
<trkpt lat="53.3496729" lon="18.4137243">
<ele>62</ele>
<time>2015-08-01T20:46:43Z</time>
</trkpt>
<trkpt lat="53.3496234" lon="18.4138512">
<ele>62</ele>
<time>2015-08-01T20:46:45Z</time>
</trkpt>
<trkpt lat="53.3495682" lon="18.4139871">
<ele>63</ele>
<time>2015-08-01T20:46:47Z</time>
</trkpt>
<trkpt lat="53.3495171" lon="18.4140877">
<ele>64</ele>
<time>2015-08-01T20:46:49Z</time>
</trkpt>
<trkpt lat="53.3494489" lon="18.4141216">
<ele>64</ele>
<time>2015-08-01T20:46:51Z</time>
</trkpt>
<trkpt lat="53.3493916" lon="18.4140701">
<ele>65</ele>
<time>2015-08-01T20:46:53Z</time>
</trkpt>
<trkpt lat="53.3493523" lon="18.4139705">
<ele>65</ele>
<time>2015-08-01T20:46:55Z</time>
</trkpt>
<trkpt lat="53.3493097" lon="18.4138380">
<ele>66</ele>
<time>2015-08-01T20:46:57Z</time>
</trkpt>
<trkpt lat="53.3492653" lon="18.4136897">
<ele>66</ele>
<time>2015-08-01T20:46:59Z</time>
</trkpt>
<trkpt lat="53.3492114" lon="18.4135417">
<ele>66</ele>
<time>2015-08-01T20:47:01Z</time>
</trkpt>
<trkpt lat="53.3490916" lon="18.4132210">
<ele>66</ele>
<time>2015-08-01T20:47:05Z</time>
</trkpt>
<trkpt lat="53.3490325" lon="18.4130484">
<ele>65</ele>
<time>2015-08-01T20:47:07Z</time>
</trkpt>
<trkpt lat="53.3489678" lon="18.4128636">
<ele>65</ele>
<time>2015-08-01T20:47:09Z</time>
</trkpt>
<trkpt lat="53.3488986" lon="18.4126718">
<ele>65</ele>
<time>2015-08-01T20:47:11Z</time>
</trkpt>
<trkpt lat="53.3488276" lon="18.4124798">
<ele>65</ele>
<time>2015-08-01T20:47:13Z</time>
</trkpt>
<trkpt lat="53.3487645" lon="18.4123001">
<ele>65</ele>
<time>2015-08-01T20:47:15Z</time>
</trkpt>
<trkpt lat="53.3487037" lon="18.4121302">
<ele>64</ele>
<time>2015-08-01T20:47:17Z</time>
</trkpt>
<trkpt lat="53.3486554" lon="18.4119429">
<ele>64</ele>
<time>2015-08-01T20:47:19Z</time>
</trkpt>
<trkpt lat="53.3486111" lon="18.4117689">
<ele>64</ele>
<time>2015-08-01T20:47:21Z</time>
</trkpt>
<trkpt lat="53.3485421" lon="18.4116139">
<ele>65</ele>
<time>2015-08-01T20:47:23Z</time>
</trkpt>
<trkpt lat="53.3484763" lon="18.4114343">
<ele>65</ele>
<time>2015-08-01T20:47:25Z</time>
</trkpt>
<trkpt lat="53.3484314" lon="18.4112448">
<ele>65</ele>
<time>2015-08-01T20:47:27Z</time>
</trkpt>
<trkpt lat="53.3483740" lon="18.4110713">
<ele>66</ele>
<time>2015-08-01T20:47:29Z</time>
</trkpt>
<trkpt lat="53.3483173" lon="18.4109124">
<ele>66</ele>
<time>2015-08-01T20:47:31Z</time>
</trkpt>
<trkpt lat="53.3482664" lon="18.4107486">
<ele>66</ele>
<time>2015-08-01T20:47:33Z</time>
</trkpt>
<trkpt lat="53.3482141" lon="18.4105867">
<ele>67</ele>
<time>2015-08-01T20:47:35Z</time>
</trkpt>
<trkpt lat="53.3481720" lon="18.4104289">
<ele>67</ele>
<time>2015-08-01T20:47:37Z</time>
</trkpt>
<trkpt lat="53.3481191" lon="18.4102891">
<ele>67</ele>
<time>2015-08-01T20:47:39Z</time>
</trkpt>
<trkpt lat="53.3480674" lon="18.4101348">
<ele>67</ele>
<time>2015-08-01T20:47:41Z</time>
</trkpt>
<trkpt lat="53.348022" lon="18.4099751">
<ele>67</ele>
<time>2015-08-01T20:47:43Z</time>
</trkpt>
<trkpt lat="53.3479752" lon="18.4098353">
<ele>67</ele>
<time>2015-08-01T20:47:45Z</time>
</trkpt>
<trkpt lat="53.3479292" lon="18.4097004">
<ele>67</ele>
<time>2015-08-01T20:47:47Z</time>
</trkpt>
<trkpt lat="53.3478781" lon="18.4095488">
<ele>67</ele>
<time>2015-08-01T20:47:49Z</time>
</trkpt>
<trkpt lat="53.3478216" lon="18.4093965">
<ele>66</ele>
<time>2015-08-01T20:47:51Z</time>
</trkpt>
<trkpt lat="53.3477687" lon="18.4092448">
<ele>66</ele>
<time>2015-08-01T20:47:53Z</time>
</trkpt>
<trkpt lat="53.3476969" lon="18.4091047">
<ele>66</ele>
<time>2015-08-01T20:47:55Z</time>
</trkpt>
<trkpt lat="53.3476392" lon="18.4089464">
<ele>66</ele>
<time>2015-08-01T20:47:57Z</time>
</trkpt>
<trkpt lat="53.3475756" lon="18.4087853">
<ele>66</ele>
<time>2015-08-01T20:47:59Z</time>
</trkpt>
<trkpt lat="53.3475134" lon="18.4086335">
<ele>66</ele>
<time>2015-08-01T20:48:01Z</time>
</trkpt>
<trkpt lat="53.3474487" lon="18.4084913">
<ele>66</ele>
<time>2015-08-01T20:48:03Z</time>
</trkpt>
<trkpt lat="53.3473843" lon="18.4083460">
<ele>66</ele>
<time>2015-08-01T20:48:05Z</time>
</trkpt>
<trkpt lat="53.3473233" lon="18.4082135">
<ele>66</ele>
<time>2015-08-01T20:48:07Z</time>
</trkpt>
<trkpt lat="53.3472901" lon="18.4081101">
<ele>66</ele>
<time>2015-08-01T20:48:09Z</time>
</trkpt>
<trkpt lat="53.3472513" lon="18.4079940">
<ele>66</ele>
<time>2015-08-01T20:48:11Z</time>
</trkpt>
<trkpt lat="53.3472040" lon="18.4078678">
<ele>66</ele>
<time>2015-08-01T20:48:13Z</time>
</trkpt>
<trkpt lat="53.3471496" lon="18.4077482">
<ele>66</ele>
<time>2015-08-01T20:48:15Z</time>
</trkpt>
<trkpt lat="53.3470932" lon="18.4076104">
<ele>66</ele>
<time>2015-08-01T20:48:17Z</time>
</trkpt>
<trkpt lat="53.3470357" lon="18.4074767">
<ele>66</ele>
<time>2015-08-01T20:48:19Z</time>
</trkpt>
<trkpt lat="53.3469702" lon="18.4073429">
<ele>66</ele>
<time>2015-08-01T20:48:21Z</time>
</trkpt>
<trkpt lat="53.3468964" lon="18.4072369">
<ele>65</ele>
<time>2015-08-01T20:48:23Z</time>
</trkpt>
<trkpt lat="53.3468243" lon="18.4071283">
<ele>65</ele>
<time>2015-08-01T20:48:25Z</time>
</trkpt>
<trkpt lat="53.3467491" lon="18.4070060">
<ele>65</ele>
<time>2015-08-01T20:48:27Z</time>
</trkpt>
<trkpt lat="53.3466785" lon="18.4068585">
<ele>65</ele>
<time>2015-08-01T20:48:29Z</time>
</trkpt>
<trkpt lat="53.3466085" lon="18.4066914">
<ele>65</ele>
<time>2015-08-01T20:48:31Z</time>
</trkpt>
<trkpt lat="53.3465539" lon="18.4065063">
<ele>65</ele>
<time>2015-08-01T20:48:33Z</time>
</trkpt>
<trkpt lat="53.3464913" lon="18.4063322">
<ele>65</ele>
<time>2015-08-01T20:48:35Z</time>
</trkpt>
<trkpt lat="53.3464286" lon="18.4061465">
<ele>66</ele>
<time>2015-08-01T20:48:37Z</time>
</trkpt>
<trkpt lat="53.3463663" lon="18.4059513">
<ele>66</ele>
<time>2015-08-01T20:48:39Z</time>
</trkpt>
<trkpt lat="53.3463021" lon="18.4057662">
<ele>66</ele>
<time>2015-08-01T20:48:41Z</time>
</trkpt>
<trkpt lat="53.3462520" lon="18.4055740">
<ele>67</ele>
<time>2015-08-01T20:48:43Z</time>
</trkpt>
<trkpt lat="53.3462035" lon="18.4054003">
<ele>66</ele>
<time>2015-08-01T20:48:45Z</time>
</trkpt>
<trkpt lat="53.3461541" lon="18.4052240">
<ele>68</ele>
<time>2015-08-01T20:48:47Z</time>
</trkpt>
<trkpt lat="53.3461082" lon="18.4050534">
<ele>68</ele>
<time>2015-08-01T20:48:49Z</time>
</trkpt>
<trkpt lat="53.3460633" lon="18.4048913">
<ele>67</ele>
<time>2015-08-01T20:48:51Z</time>
</trkpt>
<trkpt lat="53.3460170" lon="18.4047153">
<ele>67</ele>
<time>2015-08-01T20:48:53Z</time>
</trkpt>
<trkpt lat="53.3459646" lon="18.4045256">
<ele>67</ele>
<time>2015-08-01T20:48:55Z</time>
</trkpt>
<trkpt lat="53.3459187" lon="18.4043536">
<ele>67</ele>
<time>2015-08-01T20:48:57Z</time>
</trkpt>
<trkpt lat="53.3458685" lon="18.4041577">
<ele>66</ele>
<time>2015-08-01T20:48:59Z</time>
</trkpt>
<trkpt lat="53.3458281" lon="18.4039543">
<ele>66</ele>
<time>2015-08-01T20:49:01Z</time>
</trkpt>
<trkpt lat="53.3456181" lon="18.4033663">
<ele>63</ele>
<time>2015-08-01T20:49:07Z</time>
</trkpt>
<trkpt lat="53.3455483" lon="18.4031511">
<ele>62</ele>
<time>2015-08-01T20:49:09Z</time>
</trkpt>
<trkpt lat="53.3454808" lon="18.4029213">
<ele>62</ele>
<time>2015-08-01T20:49:11Z</time>
</trkpt>
<trkpt lat="53.3454060" lon="18.4027060">
<ele>63</ele>
<time>2015-08-01T20:49:13Z</time>
</trkpt>
<trkpt lat="53.3453361" lon="18.4024971">
<ele>63</ele>
<time>2015-08-01T20:49:15Z</time>
</trkpt>
<trkpt lat="53.3452599" lon="18.4022876">
<ele>65</ele>
<time>2015-08-01T20:49:17Z</time>
</trkpt>
<trkpt lat="53.3451902" lon="18.4020837">
<ele>65</ele>
<time>2015-08-01T20:49:19Z</time>
</trkpt>
<trkpt lat="53.3451199" lon="18.4018702">
<ele>66</ele>
<time>2015-08-01T20:49:21Z</time>
</trkpt>
<trkpt lat="53.3450360" lon="18.4016528">
<ele>67</ele>
<time>2015-08-01T20:49:23Z</time>
</trkpt>
<trkpt lat="53.3449553" lon="18.4014540">
<ele>67</ele>
<time>2015-08-01T20:49:25Z</time>
</trkpt>
<trkpt lat="53.3448868" lon="18.4012381">
<ele>67</ele>
<time>2015-08-01T20:49:27Z</time>
</trkpt>
<trkpt lat="53.3448138" lon="18.4010187">
<ele>67</ele>
<time>2015-08-01T20:49:29Z</time>
</trkpt>
<trkpt lat="53.3447442" lon="18.4008179">
<ele>68</ele>
<time>2015-08-01T20:49:31Z</time>
</trkpt>
<trkpt lat="53.3446730" lon="18.4006175">
<ele>68</ele>
<time>2015-08-01T20:49:33Z</time>
</trkpt>
<trkpt lat="53.3445977" lon="18.4003954">
<ele>68</ele>
<time>2015-08-01T20:49:35Z</time>
</trkpt>
<trkpt lat="53.3445202" lon="18.4001779">
<ele>68</ele>
<time>2015-08-01T20:49:37Z</time>
</trkpt>
<trkpt lat="53.3444471" lon="18.3999830">
<ele>68</ele>
<time>2015-08-01T20:49:39Z</time>
</trkpt>
<trkpt lat="53.3443759" lon="18.3997832">
<ele>68</ele>
<time>2015-08-01T20:49:41Z</time>
</trkpt>
<trkpt lat="53.3443040" lon="18.3995868">
<ele>68</ele>
<time>2015-08-01T20:49:43Z</time>
</trkpt>
<trkpt lat="53.3442349" lon="18.3993884">
<ele>69</ele>
<time>2015-08-01T20:49:45Z</time>
</trkpt>
<trkpt lat="53.3441670" lon="18.3992182">
<ele>68</ele>
<time>2015-08-01T20:49:47Z</time>
</trkpt>
<trkpt lat="53.3441024" lon="18.3990252">
<ele>68</ele>
<time>2015-08-01T20:49:49Z</time>
</trkpt>
<trkpt lat="53.3440452" lon="18.3988313">
<ele>70</ele>
<time>2015-08-01T20:49:51Z</time>
</trkpt>
<trkpt lat="53.3439801" lon="18.398644">
<ele>71</ele>
<time>2015-08-01T20:49:53Z</time>
</trkpt>
<trkpt lat="53.3439190" lon="18.3984755">
<ele>71</ele>
<time>2015-08-01T20:49:55Z</time>
</trkpt>
<trkpt lat="53.3438513" lon="18.3983119">
<ele>72</ele>
<time>2015-08-01T20:49:57Z</time>
</trkpt>
<trkpt lat="53.343785" lon="18.3981296">
<ele>73</ele>
<time>2015-08-01T20:49:59Z</time>
</trkpt>
<trkpt lat="53.3437219" lon="18.3979559">
<ele>72</ele>
<time>2015-08-01T20:50:01Z</time>
</trkpt>
<trkpt lat="53.3435950" lon="18.3976595">
<ele>73</ele>
<time>2015-08-01T20:50:05Z</time>
</trkpt>
<trkpt lat="53.3435341" lon="18.3974773">
<ele>75</ele>
<time>2015-08-01T20:50:07Z</time>
</trkpt>
<trkpt lat="53.3434701" lon="18.3973088">
<ele>74</ele>
<time>2015-08-01T20:50:09Z</time>
</trkpt>
<trkpt lat="53.3434041" lon="18.3971489">
<ele>74</ele>
<time>2015-08-01T20:50:11Z</time>
</trkpt>
<trkpt lat="53.3433601" lon="18.3969991">
<ele>71</ele>
<time>2015-08-01T20:50:13Z</time>
</trkpt>
<trkpt lat="53.3432813" lon="18.3968069">
<ele>70</ele>
<time>2015-08-01T20:50:15Z</time>
</trkpt>
<trkpt lat="53.3432082" lon="18.3966182">
<ele>70</ele>
<time>2015-08-01T20:50:17Z</time>
</trkpt>
<trkpt lat="53.3431357" lon="18.3964462">
<ele>70</ele>
<time>2015-08-01T20:50:19Z</time>
</trkpt>
<trkpt lat="53.3430675" lon="18.3962243">
<ele>71</ele>
<time>2015-08-01T20:50:21Z</time>
</trkpt>
<trkpt lat="53.3429611" lon="18.3960481">
<ele>67</ele>
<time>2015-08-01T20:50:23Z</time>
</trkpt>
<trkpt lat="53.3428892" lon="18.3958560">
<ele>68</ele>
<time>2015-08-01T20:50:25Z</time>
</trkpt>
<trkpt lat="53.3428321" lon="18.3956696">
<ele>71</ele>
<time>2015-08-01T20:50:27Z</time>
</trkpt>
<trkpt lat="53.3427703" lon="18.3955324">
<ele>70</ele>
<time>2015-08-01T20:50:29Z</time>
</trkpt>
<trkpt lat="53.3426944" lon="18.3953302">
<ele>69</ele>
<time>2015-08-01T20:50:31Z</time>
</trkpt>
<trkpt lat="53.3426332" lon="18.3951109">
<ele>70</ele>
<time>2015-08-01T20:50:33Z</time>
</trkpt>
<trkpt lat="53.3425656" lon="18.3949198">
<ele>71</ele>
<time>2015-08-01T20:50:35Z</time>
</trkpt>
<trkpt lat="53.3425126" lon="18.3947674">
<ele>72</ele>
<time>2015-08-01T20:50:37Z</time>
</trkpt>
<trkpt lat="53.3424518" lon="18.3945864">
<ele>72</ele>
<time>2015-08-01T20:50:39Z</time>
</trkpt>
<trkpt lat="53.3423738" lon="18.3944067">
<ele>72</ele>
<time>2015-08-01T20:50:41Z</time>
</trkpt>
<trkpt lat="53.3423160" lon="18.3942389">
<ele>71</ele>
<time>2015-08-01T20:50:43Z</time>
</trkpt>
<trkpt lat="53.3422400" lon="18.3940415">
<ele>72</ele>
<time>2015-08-01T20:50:45Z</time>
</trkpt>
<trkpt lat="53.3421485" lon="18.3938620">
<ele>69</ele>
<time>2015-08-01T20:50:47Z</time>
</trkpt>
<trkpt lat="53.3420924" lon="18.3936739">
<ele>68</ele>
<time>2015-08-01T20:50:49Z</time>
</trkpt>
<trkpt lat="53.3420174" lon="18.3934783">
<ele>68</ele>
<time>2015-08-01T20:50:51Z</time>
</trkpt>
<trkpt lat="53.3419515" lon="18.3932826">
<ele>70</ele>
<time>2015-08-01T20:50:53Z</time>
</trkpt>
<trkpt lat="53.3418544" lon="18.3930804">
<ele>69</ele>
<time>2015-08-01T20:50:55Z</time>
</trkpt>
<trkpt lat="53.3417787" lon="18.3928880">
<ele>68</ele>
<time>2015-08-01T20:50:57Z</time>
</trkpt>
<trkpt lat="53.3417101" lon="18.3927224">
<ele>69</ele>
<time>2015-08-01T20:50:59Z</time>
</trkpt>
<trkpt lat="53.3416387" lon="18.3925544">
<ele>67</ele>
<time>2015-08-01T20:51:01Z</time>
</trkpt>
<trkpt lat="53.3415737" lon="18.3924118">
<ele>66</ele>
<time>2015-08-01T20:51:03Z</time>
</trkpt>
<trkpt lat="53.3415283" lon="18.3922308">
<ele>66</ele>
<time>2015-08-01T20:51:05Z</time>
</trkpt>
<trkpt lat="53.3415409" lon="18.3920339">
<ele>66</ele>
<time>2015-08-01T20:51:07Z</time>
</trkpt>
<trkpt lat="53.3415991" lon="18.3918406">
<ele>67</ele>
<time>2015-08-01T20:51:09Z</time>
</trkpt>
<trkpt lat="53.3416814" lon="18.3916427">
<ele>66</ele>
<time>2015-08-01T20:51:11Z</time>
</trkpt>
<trkpt lat="53.3417692" lon="18.3914646">
<ele>65</ele>
<time>2015-08-01T20:51:13Z</time>
</trkpt>
<trkpt lat="53.3418538" lon="18.3913099">
<ele>64</ele>
<time>2015-08-01T20:51:15Z</time>
</trkpt>
<trkpt lat="53.3419341" lon="18.3911275">
<ele>64</ele>
<time>2015-08-01T20:51:17Z</time>
</trkpt>
<trkpt lat="53.3420133" lon="18.3909405">
<ele>63</ele>
<time>2015-08-01T20:51:19Z</time>
</trkpt>
<trkpt lat="53.3421084" lon="18.3907781">
<ele>63</ele>
<time>2015-08-01T20:51:21Z</time>
</trkpt>
<trkpt lat="53.3421871" lon="18.3906295">
<ele>63</ele>
<time>2015-08-01T20:51:23Z</time>
</trkpt>
<trkpt lat="53.3422693" lon="18.3904762">
<ele>63</ele>
<time>2015-08-01T20:51:25Z</time>
</trkpt>
<trkpt lat="53.3423494" lon="18.390326">
<ele>63</ele>
<time>2015-08-01T20:51:27Z</time>
</trkpt>
<trkpt lat="53.3424274" lon="18.3901696">
<ele>62</ele>
<time>2015-08-01T20:51:29Z</time>
</trkpt>
<trkpt lat="53.3424986" lon="18.3900412">
<ele>63</ele>
<time>2015-08-01T20:51:31Z</time>
</trkpt>
<trkpt lat="53.3425663" lon="18.3899024">
<ele>62</ele>
<time>2015-08-01T20:51:33Z</time>
</trkpt>
<trkpt lat="53.3426375" lon="18.3897704">
<ele>62</ele>
<time>2015-08-01T20:51:35Z</time>
</trkpt>
<trkpt lat="53.3427006" lon="18.3896491">
<ele>61</ele>
<time>2015-08-01T20:51:37Z</time>
</trkpt>
<trkpt lat="53.3427649" lon="18.3895321">
<ele>62</ele>
<time>2015-08-01T20:51:39Z</time>
</trkpt>
<trkpt lat="53.3428158" lon="18.3894330">
<ele>62</ele>
<time>2015-08-01T20:51:41Z</time>
</trkpt>
<trkpt lat="53.3428055" lon="18.3893179">
<ele>62</ele>
<time>2015-08-01T20:51:43Z</time>
</trkpt>
<trkpt lat="53.3427584" lon="18.3892264">
<ele>61</ele>
<time>2015-08-01T20:51:45Z</time>
</trkpt>
<trkpt lat="53.3427080" lon="18.3891314">
<ele>61</ele>
<time>2015-08-01T20:51:47Z</time>
</trkpt>
<trkpt lat="53.3426497" lon="18.3890363">
<ele>61</ele>
<time>2015-08-01T20:51:49Z</time>
</trkpt>
<trkpt lat="53.3425917" lon="18.3889371">
<ele>62</ele>
<time>2015-08-01T20:51:51Z</time>
</trkpt>
<trkpt lat="53.3425398" lon="18.3888315">
<ele>60</ele>
<time>2015-08-01T20:51:53Z</time>
</trkpt>
<trkpt lat="53.3424838" lon="18.3887305">
<ele>59</ele>
<time>2015-08-01T20:51:55Z</time>
</trkpt>
<trkpt lat="53.3424018" lon="18.3886281">
<ele>58</ele>
<time>2015-08-01T20:51:57Z</time>
</trkpt>
<trkpt lat="53.3423348" lon="18.3885172">
<ele>57</ele>
<time>2015-08-01T20:51:59Z</time>
</trkpt>
<trkpt lat="53.3422522" lon="18.3884581">
<ele>58</ele>
<time>2015-08-01T20:52:01Z</time>
</trkpt>
<trkpt lat="53.3421683" lon="18.3884181">
<ele>58</ele>
<time>2015-08-01T20:52:03Z</time>
</trkpt>
<trkpt lat="53.3420687" lon="18.3883719">
<ele>58</ele>
<time>2015-08-01T20:52:05Z</time>
</trkpt>
<trkpt lat="53.3419755" lon="18.3883028">
<ele>59</ele>
<time>2015-08-01T20:52:07Z</time>
</trkpt>
<trkpt lat="53.3418853" lon="18.3882441">
<ele>60</ele>
<time>2015-08-01T20:52:09Z</time>
</trkpt>
<trkpt lat="53.3418027" lon="18.3881940">
<ele>60</ele>
<time>2015-08-01T20:52:11Z</time>
</trkpt>
<trkpt lat="53.3417091" lon="18.3881365">
<ele>60</ele>
<time>2015-08-01T20:52:13Z</time>
</trkpt>
<trkpt lat="53.3416088" lon="18.3880797">
<ele>61</ele>
<time>2015-08-01T20:52:15Z</time>
</trkpt>
<trkpt lat="53.3415282" lon="18.3880454">
<ele>60</ele>
<time>2015-08-01T20:52:17Z</time>
</trkpt>
<trkpt lat="53.3414301" lon="18.3879720">
<ele>60</ele>
<time>2015-08-01T20:52:19Z</time>
</trkpt>
<trkpt lat="53.3413354" lon="18.3879335">
<ele>60</ele>
<time>2015-08-01T20:52:21Z</time>
</trkpt>
<trkpt lat="53.3412633" lon="18.3878853">
<ele>60</ele>
<time>2015-08-01T20:52:23Z</time>
</trkpt>
<trkpt lat="53.3412091" lon="18.3878357">
<ele>60</ele>
<time>2015-08-01T20:52:25Z</time>
</trkpt>
<trkpt lat="53.3411975" lon="18.3877333">
<ele>60</ele>
<time>2015-08-01T20:52:27Z</time>
</trkpt>
<trkpt lat="53.3412092" lon="18.3876275">
<ele>60</ele>
<time>2015-08-01T20:52:29Z</time>
</trkpt>
<trkpt lat="53.3412145" lon="18.3875219">
<ele>61</ele>
<time>2015-08-01T20:52:31Z</time>
</trkpt>
<trkpt lat="53.3412225" lon="18.3874211">
<ele>61</ele>
<time>2015-08-01T20:52:33Z</time>
</trkpt>
<trkpt lat="53.3412277" lon="18.3873193">
<ele>61</ele>
<time>2015-08-01T20:52:35Z</time>
</trkpt>
<trkpt lat="53.3412266" lon="18.3872156">
<ele>61</ele>
<time>2015-08-01T20:52:37Z</time>
</trkpt>
<trkpt lat="53.3412182" lon="18.3871109">
<ele>61</ele>
<time>2015-08-01T20:52:39Z</time>
</trkpt>
<trkpt lat="53.3412010" lon="18.3870150">
<ele>62</ele>
<time>2015-08-01T20:52:41Z</time>
</trkpt>
<trkpt lat="53.3411751" lon="18.3869331">
<ele>62</ele>
<time>2015-08-01T20:52:43Z</time>
</trkpt>
<trkpt lat="53.3411472" lon="18.3868549">
<ele>61</ele>
<time>2015-08-01T20:52:45Z</time>
</trkpt>
<trkpt lat="53.3411032" lon="18.3867943">
<ele>61</ele>
<time>2015-08-01T20:52:47Z</time>
</trkpt>
<trkpt lat="53.3410546" lon="18.3867488">
<ele>61</ele>
<time>2015-08-01T20:52:49Z</time>
</trkpt>
<trkpt lat="53.3410151" lon="18.3867085">
<ele>61</ele>
<time>2015-08-01T20:52:51Z</time>
</trkpt>
<trkpt lat="53.3409863" lon="18.3866625">
<ele>61</ele>
<time>2015-08-01T20:52:53Z</time>
</trkpt>
<trkpt lat="53.3409610" lon="18.3866154">
<ele>60</ele>
<time>2015-08-01T20:52:55Z</time>
</trkpt>
<trkpt lat="53.3409444" lon="18.3865649">
<ele>60</ele>
<time>2015-08-01T20:52:57Z</time>
</trkpt>
<trkpt lat="53.3409339" lon="18.3865032">
<ele>61</ele>
<time>2015-08-01T20:52:59Z</time>
</trkpt>
<trkpt lat="53.3409203" lon="18.3864332">
<ele>61</ele>
<time>2015-08-01T20:53:01Z</time>
</trkpt>
<trkpt lat="53.3409028" lon="18.3863714">
<ele>61</ele>
<time>2015-08-01T20:53:03Z</time>
</trkpt>
<trkpt lat="53.3408769" lon="18.3863550">
<ele>61</ele>
<time>2015-08-01T20:53:05Z</time>
</trkpt>
<trkpt lat="53.3408519" lon="18.3863535">
<ele>61</ele>
<time>2015-08-01T20:53:07Z</time>
</trkpt>
<trkpt lat="53.3408558" lon="18.3863662">
<ele>61</ele>
<time>2015-08-01T20:53:09Z</time>
</trkpt>
<trkpt lat="53.3408562" lon="18.3863701">
<ele>61</ele>
<time>2015-08-01T20:53:11Z</time>
</trkpt>
<trkpt lat="53.3408567" lon="18.3863709">
<ele>61</ele>
<time>2015-08-01T20:53:13Z</time>
</trkpt>
<trkpt lat="53.3408600" lon="18.386374">
<ele>61</ele>
<time>2015-08-01T20:53:15Z</time>
</trkpt>
<trkpt lat="53.3408617" lon="18.3863776">
<ele>61</ele>
<time>2015-08-01T20:53:17Z</time>
</trkpt>
<trkpt lat="53.3408629" lon="18.3863817">
<ele>61</ele>
<time>2015-08-01T20:53:19Z</time>
</trkpt>
<trkpt lat="53.3408633" lon="18.3863840">
<ele>61</ele>
<time>2015-08-01T20:53:21Z</time>
</trkpt>
<trkpt lat="53.3408634" lon="18.3863848">
<ele>61</ele>
<time>2015-08-01T20:53:23Z</time>
</trkpt>
<trkpt lat="53.3408634" lon="18.3863851">
<ele>61</ele>
<time>2015-08-01T20:53:25Z</time>
</trkpt>
<trkpt lat="53.3408634" lon="18.3863851">
<ele>61</ele>
<time>2015-08-01T20:53:27Z</time>
</trkpt>
<trkpt lat="53.3408634" lon="18.3863851">
<ele>61</ele>
<time>2015-08-01T20:53:29Z</time>
</trkpt>
<trkpt lat="53.3408634" lon="18.3863850">
<ele>61</ele>
<time>2015-08-01T20:53:31Z</time>
</trkpt>
<trkpt lat="53.3408618" lon="18.3863851">
<ele>62</ele>
<time>2015-08-01T20:53:33Z</time>
</trkpt>
<trkpt lat="53.3408563" lon="18.3863929">
<ele>61</ele>
<time>2015-08-01T20:53:35Z</time>
</trkpt>
<trkpt lat="53.3408521" lon="18.3864053">
<ele>61</ele>
<time>2015-08-01T20:53:37Z</time>
</trkpt>
<trkpt lat="53.3408445" lon="18.3864232">
<ele>62</ele>
<time>2015-08-01T20:53:39Z</time>
</trkpt>
<trkpt lat="53.3408282" lon="18.3864667">
<ele>61</ele>
<time>2015-08-01T20:53:41Z</time>
</trkpt>
<trkpt lat="53.3408015" lon="18.3865213">
<ele>62</ele>
<time>2015-08-01T20:53:43Z</time>
</trkpt>
<trkpt lat="53.3407659" lon="18.3865659">
<ele>61</ele>
<time>2015-08-01T20:53:45Z</time>
</trkpt>
<trkpt lat="53.3407355" lon="18.3866041">
<ele>61</ele>
<time>2015-08-01T20:53:47Z</time>
</trkpt>
<trkpt lat="53.3407070" lon="18.3866237">
<ele>60</ele>
<time>2015-08-01T20:53:49Z</time>
</trkpt>
<trkpt lat="53.3406785" lon="18.3866334">
<ele>59</ele>
<time>2015-08-01T20:53:51Z</time>
</trkpt>
<trkpt lat="53.3406500" lon="18.3866135">
<ele>59</ele>
<time>2015-08-01T20:53:53Z</time>
</trkpt>
<trkpt lat="53.3406298" lon="18.3865946">
<ele>59</ele>
<time>2015-08-01T20:53:55Z</time>
</trkpt>
<trkpt lat="53.3406312" lon="18.3865947">
<ele>58</ele>
<time>2015-08-01T20:53:57Z</time>
</trkpt>
<trkpt lat="53.3406346" lon="18.3866181">
<ele>58</ele>
<time>2015-08-01T20:53:59Z</time>
</trkpt>
<trkpt lat="53.3406274" lon="18.3866647">
<ele>59</ele>
<time>2015-08-01T20:54:01Z</time>
</trkpt>
<trkpt lat="53.3406132" lon="18.3867116">
<ele>59</ele>
<time>2015-08-01T20:54:03Z</time>
</trkpt>
<trkpt lat="53.3406010" lon="18.3867618">
<ele>59</ele>
<time>2015-08-01T20:54:05Z</time>
</trkpt>
<trkpt lat="53.3405841" lon="18.3868105">
<ele>59</ele>
<time>2015-08-01T20:54:07Z</time>
</trkpt>
<trkpt lat="53.3405660" lon="18.3868625">
<ele>59</ele>
<time>2015-08-01T20:54:09Z</time>
</trkpt>
<trkpt lat="53.3405515" lon="18.3869177">
<ele>59</ele>
<time>2015-08-01T20:54:11Z</time>
</trkpt>
<trkpt lat="53.3405492" lon="18.3869746">
<ele>59</ele>
<time>2015-08-01T20:54:13Z</time>
</trkpt>
<trkpt lat="53.3405681" lon="18.3870213">
<ele>58</ele>
<time>2015-08-01T20:54:15Z</time>
</trkpt>
<trkpt lat="53.3405955" lon="18.3870450">
<ele>58</ele>
<time>2015-08-01T20:54:17Z</time>
</trkpt>
<trkpt lat="53.3405921" lon="18.3870370">
<ele>58</ele>
<time>2015-08-01T20:54:19Z</time>
</trkpt>
<trkpt lat="53.3405875" lon="18.3870361">
<ele>58</ele>
<time>2015-08-01T20:54:21Z</time>
</trkpt>
<trkpt lat="53.3405845" lon="18.3870390">
<ele>58</ele>
<time>2015-08-01T20:54:23Z</time>
</trkpt>
<trkpt lat="53.3405800" lon="18.3870443">
<ele>58</ele>
<time>2015-08-01T20:54:25Z</time>
</trkpt>
<trkpt lat="53.3405756" lon="18.3870494">
<ele>58</ele>
<time>2015-08-01T20:54:27Z</time>
</trkpt>
<trkpt lat="53.3405736" lon="18.3870537">
<ele>58</ele>
<time>2015-08-01T20:54:29Z</time>
</trkpt>
<trkpt lat="53.3405736" lon="18.387055">
<ele>58</ele>
<time>2015-08-01T20:54:31Z</time>
</trkpt>
<trkpt lat="53.3405843" lon="18.3870657">
<ele>57</ele>
<time>2015-08-01T20:54:33Z</time>
</trkpt>
<trkpt lat="53.3406165" lon="18.3871065">
<ele>58</ele>
<time>2015-08-01T20:54:35Z</time>
</trkpt>
<trkpt lat="53.3406595" lon="18.3871646">
<ele>58</ele>
<time>2015-08-01T20:54:37Z</time>
</trkpt>
<trkpt lat="53.3407040" lon="18.3872308">
<ele>58</ele>
<time>2015-08-01T20:54:39Z</time>
</trkpt>
<trkpt lat="53.3407497" lon="18.3872948">
<ele>59</ele>
<time>2015-08-01T20:54:41Z</time>
</trkpt>
<trkpt lat="53.3407973" lon="18.3873579">
<ele>60</ele>
<time>2015-08-01T20:54:43Z</time>
</trkpt>
<trkpt lat="53.3408433" lon="18.3874324">
<ele>60</ele>
<time>2015-08-01T20:54:45Z</time>
</trkpt>
<trkpt lat="53.3408940" lon="18.3875216">
<ele>59</ele>
<time>2015-08-01T20:54:47Z</time>
</trkpt>
<trkpt lat="53.3409473" lon="18.3876101">
<ele>60</ele>
<time>2015-08-01T20:54:49Z</time>
</trkpt>
<trkpt lat="53.3409942" lon="18.3876990">
<ele>60</ele>
<time>2015-08-01T20:54:51Z</time>
</trkpt>
<trkpt lat="53.3410532" lon="18.3877762">
<ele>60</ele>
<time>2015-08-01T20:54:53Z</time>
</trkpt>
<trkpt lat="53.3411218" lon="18.3878471">
<ele>61</ele>
<time>2015-08-01T20:54:55Z</time>
</trkpt>
<trkpt lat="53.3411911" lon="18.3879095">
<ele>62</ele>
<time>2015-08-01T20:54:57Z</time>
</trkpt>
<trkpt lat="53.3412607" lon="18.3879666">
<ele>60</ele>
<time>2015-08-01T20:54:59Z</time>
</trkpt>
<trkpt lat="53.3413337" lon="18.3880137">
<ele>60</ele>
<time>2015-08-01T20:55:01Z</time>
</trkpt>
<trkpt lat="53.3414075" lon="18.3880551">
<ele>59</ele>
<time>2015-08-01T20:55:03Z</time>
</trkpt>
<trkpt lat="53.3414821" lon="18.3880920">
<ele>58</ele>
<time>2015-08-01T20:55:05Z</time>
</trkpt>
<trkpt lat="53.3415565" lon="18.3881347">
<ele>59</ele>
<time>2015-08-01T20:55:07Z</time>
</trkpt>
<trkpt lat="53.3416324" lon="18.3881868">
<ele>61</ele>
<time>2015-08-01T20:55:09Z</time>
</trkpt>
<trkpt lat="53.3417078" lon="18.3882383">
<ele>60</ele>
<time>2015-08-01T20:55:11Z</time>
</trkpt>
<trkpt lat="53.3417812" lon="18.3882761">
<ele>60</ele>
<time>2015-08-01T20:55:13Z</time>
</trkpt>
<trkpt lat="53.3418543" lon="18.3883078">
<ele>60</ele>
<time>2015-08-01T20:55:15Z</time>
</trkpt>
<trkpt lat="53.3419319" lon="18.3883456">
<ele>61</ele>
<time>2015-08-01T20:55:17Z</time>
</trkpt>
<trkpt lat="53.3420284" lon="18.3883899">
<ele>61</ele>
<time>2015-08-01T20:55:19Z</time>
</trkpt>
<trkpt lat="53.3421447" lon="18.3884333">
<ele>62</ele>
<time>2015-08-01T20:55:21Z</time>
</trkpt>
<trkpt lat="53.3422336" lon="18.3884734">
<ele>62</ele>
<time>2015-08-01T20:55:23Z</time>
</trkpt>
<trkpt lat="53.3423093" lon="18.3885286">
<ele>63</ele>
<time>2015-08-01T20:55:25Z</time>
</trkpt>
<trkpt lat="53.3423829" lon="18.3885779">
<ele>62</ele>
<time>2015-08-01T20:55:27Z</time>
</trkpt>
<trkpt lat="53.3424490" lon="18.3886558">
<ele>62</ele>
<time>2015-08-01T20:55:29Z</time>
</trkpt>
<trkpt lat="53.3424991" lon="18.3887550">
<ele>63</ele>
<time>2015-08-01T20:55:31Z</time>
</trkpt>
<trkpt lat="53.3425511" lon="18.3888556">
<ele>63</ele>
<time>2015-08-01T20:55:33Z</time>
</trkpt>
<trkpt lat="53.3426118" lon="18.3889581">
<ele>64</ele>
<time>2015-08-01T20:55:35Z</time>
</trkpt>
<trkpt lat="53.3426728" lon="18.3890563">
<ele>64</ele>
<time>2015-08-01T20:55:37Z</time>
</trkpt>
<trkpt lat="53.3427308" lon="18.3891542">
<ele>64</ele>
<time>2015-08-01T20:55:39Z</time>
</trkpt>
<trkpt lat="53.3427881" lon="18.3892573">
<ele>64</ele>
<time>2015-08-01T20:55:41Z</time>
</trkpt>
<trkpt lat="53.3428315" lon="18.3893724">
<ele>64</ele>
<time>2015-08-01T20:55:43Z</time>
</trkpt>
<trkpt lat="53.3428159" lon="18.3895021">
<ele>63</ele>
<time>2015-08-01T20:55:45Z</time>
</trkpt>
<trkpt lat="53.3427506" lon="18.3895995">
<ele>62</ele>
<time>2015-08-01T20:55:47Z</time>
</trkpt>
<trkpt lat="53.3426389" lon="18.3897155">
<ele>62</ele>
<time>2015-08-01T20:55:49Z</time>
</trkpt>
<trkpt lat="53.3425689" lon="18.3898368">
<ele>63</ele>
<time>2015-08-01T20:55:51Z</time>
</trkpt>
<trkpt lat="53.3425093" lon="18.3899678">
<ele>63</ele>
<time>2015-08-01T20:55:53Z</time>
</trkpt>
<trkpt lat="53.3424516" lon="18.3900955">
<ele>63</ele>
<time>2015-08-01T20:55:55Z</time>
</trkpt>
<trkpt lat="53.3423852" lon="18.3902248">
<ele>64</ele>
<time>2015-08-01T20:55:57Z</time>
</trkpt>
<trkpt lat="53.3423216" lon="18.3903620">
<ele>64</ele>
<time>2015-08-01T20:55:59Z</time>
</trkpt>
<trkpt lat="53.3422526" lon="18.3904844">
<ele>64</ele>
<time>2015-08-01T20:56:01Z</time>
</trkpt>
<trkpt lat="53.3421096" lon="18.3907562">
<ele>64</ele>
<time>2015-08-01T20:56:05Z</time>
</trkpt>
<trkpt lat="53.3420278" lon="18.3909026">
<ele>64</ele>
<time>2015-08-01T20:56:07Z</time>
</trkpt>
<trkpt lat="53.3419521" lon="18.3910427">
<ele>63</ele>
<time>2015-08-01T20:56:09Z</time>
</trkpt>
<trkpt lat="53.3418766" lon="18.3911762">
<ele>62</ele>
<time>2015-08-01T20:56:11Z</time>
</trkpt>
<trkpt lat="53.3418251" lon="18.3913385">
<ele>61</ele>
<time>2015-08-01T20:56:13Z</time>
</trkpt>
<trkpt lat="53.3417484" lon="18.3914790">
<ele>61</ele>
<time>2015-08-01T20:56:15Z</time>
</trkpt>
<trkpt lat="53.3416631" lon="18.3916420">
<ele>61</ele>
<time>2015-08-01T20:56:17Z</time>
</trkpt>
<trkpt lat="53.3415961" lon="18.3917702">
<ele>62</ele>
<time>2015-08-01T20:56:19Z</time>
</trkpt>
<trkpt lat="53.3415335" lon="18.391905">
<ele>63</ele>
<time>2015-08-01T20:56:21Z</time>
</trkpt>
<trkpt lat="53.3415011" lon="18.3920526">
<ele>64</ele>
<time>2015-08-01T20:56:23Z</time>
</trkpt>
<trkpt lat="53.3414928" lon="18.3921946">
<ele>65</ele>
<time>2015-08-01T20:56:25Z</time>
</trkpt>
<trkpt lat="53.3416469" lon="18.3926179">
<ele>70</ele>
<time>2015-08-01T20:56:31Z</time>
</trkpt>
<trkpt lat="53.3417057" lon="18.3927229">
<ele>71</ele>
<time>2015-08-01T20:56:33Z</time>
</trkpt>
<trkpt lat="53.3417616" lon="18.3928480">
<ele>72</ele>
<time>2015-08-01T20:56:35Z</time>
</trkpt>
<trkpt lat="53.3418354" lon="18.3930314">
<ele>73</ele>
<time>2015-08-01T20:56:37Z</time>
</trkpt>
<trkpt lat="53.3418974" lon="18.3931949">
<ele>73</ele>
<time>2015-08-01T20:56:39Z</time>
</trkpt>
<trkpt lat="53.3419485" lon="18.3933379">
<ele>72</ele>
<time>2015-08-01T20:56:41Z</time>
</trkpt>
<trkpt lat="53.3420292" lon="18.3934836">
<ele>73</ele>
<time>2015-08-01T20:56:43Z</time>
</trkpt>
<trkpt lat="53.3420873" lon="18.3936361">
<ele>73</ele>
<time>2015-08-01T20:56:45Z</time>
</trkpt>
<trkpt lat="53.3421179" lon="18.3938191">
<ele>72</ele>
<time>2015-08-01T20:56:47Z</time>
</trkpt>
<trkpt lat="53.3421995" lon="18.3940079">
<ele>73</ele>
<time>2015-08-01T20:56:49Z</time>
</trkpt>
<trkpt lat="53.3421773" lon="18.3942010">
<ele>69</ele>
<time>2015-08-01T20:56:51Z</time>
</trkpt>
<trkpt lat="53.3422561" lon="18.3943664">
<ele>69</ele>
<time>2015-08-01T20:56:53Z</time>
</trkpt>
<trkpt lat="53.3423289" lon="18.3945289">
<ele>70</ele>
<time>2015-08-01T20:56:55Z</time>
</trkpt>
<trkpt lat="53.3424021" lon="18.3947079">
<ele>70</ele>
<time>2015-08-01T20:56:57Z</time>
</trkpt>
<trkpt lat="53.3424823" lon="18.3948826">
<ele>72</ele>
<time>2015-08-01T20:56:59Z</time>
</trkpt>
<trkpt lat="53.3425440" lon="18.3950673">
<ele>72</ele>
<time>2015-08-01T20:57:01Z</time>
</trkpt>
<trkpt lat="53.3426053" lon="18.3952474">
<ele>72</ele>
<time>2015-08-01T20:57:03Z</time>
</trkpt>
<trkpt lat="53.3426749" lon="18.3954029">
<ele>69</ele>
<time>2015-08-01T20:57:05Z</time>
</trkpt>
<trkpt lat="53.3427281" lon="18.3956001">
<ele>69</ele>
<time>2015-08-01T20:57:07Z</time>
</trkpt>
<trkpt lat="53.3427970" lon="18.3957953">
<ele>70</ele>
<time>2015-08-01T20:57:09Z</time>
</trkpt>
<trkpt lat="53.3428882" lon="18.3959749">
<ele>71</ele>
<time>2015-08-01T20:57:11Z</time>
</trkpt>
<trkpt lat="53.3429729" lon="18.3961463">
<ele>70</ele>
<time>2015-08-01T20:57:13Z</time>
</trkpt>
<trkpt lat="53.3430378" lon="18.3963305">
<ele>72</ele>
<time>2015-08-01T20:57:15Z</time>
</trkpt>
<trkpt lat="53.3430985" lon="18.3964910">
<ele>69</ele>
<time>2015-08-01T20:57:17Z</time>
</trkpt>
<trkpt lat="53.3431776" lon="18.3966623">
<ele>66</ele>
<time>2015-08-01T20:57:19Z</time>
</trkpt>
<trkpt lat="53.3432555" lon="18.3968513">
<ele>65</ele>
<time>2015-08-01T20:57:21Z</time>
</trkpt>
<trkpt lat="53.3432805" lon="18.3970496">
<ele>66</ele>
<time>2015-08-01T20:57:23Z</time>
</trkpt>
<trkpt lat="53.3433425" lon="18.3972401">
<ele>65</ele>
<time>2015-08-01T20:57:25Z</time>
</trkpt>
<trkpt lat="53.3434097" lon="18.3974501">
<ele>67</ele>
<time>2015-08-01T20:57:27Z</time>
</trkpt>
<trkpt lat="53.3434829" lon="18.3976268">
<ele>68</ele>
<time>2015-08-01T20:57:29Z</time>
</trkpt>
<trkpt lat="53.3435359" lon="18.3978129">
<ele>67</ele>
<time>2015-08-01T20:57:31Z</time>
</trkpt>
<trkpt lat="53.3436017" lon="18.3980031">
<ele>67</ele>
<time>2015-08-01T20:57:33Z</time>
</trkpt>
<trkpt lat="53.3436799" lon="18.3981787">
<ele>66</ele>
<time>2015-08-01T20:57:35Z</time>
</trkpt>
<trkpt lat="53.3437802" lon="18.3983787">
<ele>69</ele>
<time>2015-08-01T20:57:37Z</time>
</trkpt>
<trkpt lat="53.3438280" lon="18.3985776">
<ele>68</ele>
<time>2015-08-01T20:57:39Z</time>
</trkpt>
<trkpt lat="53.3439473" lon="18.3987847">
<ele>68</ele>
<time>2015-08-01T20:57:41Z</time>
</trkpt>
<trkpt lat="53.3440151" lon="18.3989899">
<ele>69</ele>
<time>2015-08-01T20:57:43Z</time>
</trkpt>
<trkpt lat="53.3440847" lon="18.3991792">
<ele>70</ele>
<time>2015-08-01T20:57:45Z</time>
</trkpt>
<trkpt lat="53.3441610" lon="18.3993600">
<ele>70</ele>
<time>2015-08-01T20:57:47Z</time>
</trkpt>
<trkpt lat="53.3442239" lon="18.3995572">
<ele>70</ele>
<time>2015-08-01T20:57:49Z</time>
</trkpt>
<trkpt lat="53.3442855" lon="18.399758">
<ele>68</ele>
<time>2015-08-01T20:57:51Z</time>
</trkpt>
<trkpt lat="53.3443683" lon="18.3999364">
<ele>69</ele>
<time>2015-08-01T20:57:53Z</time>
</trkpt>
<trkpt lat="53.3444272" lon="18.4001028">
<ele>68</ele>
<time>2015-08-01T20:57:55Z</time>
</trkpt>
<trkpt lat="53.3444990" lon="18.4002802">
<ele>68</ele>
<time>2015-08-01T20:57:57Z</time>
</trkpt>
<trkpt lat="53.3445661" lon="18.4004833">
<ele>69</ele>
<time>2015-08-01T20:57:59Z</time>
</trkpt>
<trkpt lat="53.3446196" lon="18.4006660">
<ele>67</ele>
<time>2015-08-01T20:58:01Z</time>
</trkpt>
<trkpt lat="53.3446869" lon="18.4008328">
<ele>67</ele>
<time>2015-08-01T20:58:03Z</time>
</trkpt>
<trkpt lat="53.3447659" lon="18.4010027">
<ele>66</ele>
<time>2015-08-01T20:58:05Z</time>
</trkpt>
<trkpt lat="53.3448390" lon="18.4011862">
<ele>67</ele>
<time>2015-08-01T20:58:07Z</time>
</trkpt>
<trkpt lat="53.3449152" lon="18.4013581">
<ele>67</ele>
<time>2015-08-01T20:58:09Z</time>
</trkpt>
<trkpt lat="53.3449819" lon="18.4015273">
<ele>67</ele>
<time>2015-08-01T20:58:11Z</time>
</trkpt>
<trkpt lat="53.3450447" lon="18.4016907">
<ele>66</ele>
<time>2015-08-01T20:58:13Z</time>
</trkpt>
<trkpt lat="53.3451130" lon="18.4018645">
<ele>66</ele>
<time>2015-08-01T20:58:15Z</time>
</trkpt>
<trkpt lat="53.3451796" lon="18.4020225">
<ele>66</ele>
<time>2015-08-01T20:58:17Z</time>
</trkpt>
<trkpt lat="53.3452409" lon="18.4021901">
<ele>66</ele>
<time>2015-08-01T20:58:19Z</time>
</trkpt>
<trkpt lat="53.3452905" lon="18.4023659">
<ele>65</ele>
<time>2015-08-01T20:58:21Z</time>
</trkpt>
<trkpt lat="53.3453433" lon="18.4025527">
<ele>66</ele>
<time>2015-08-01T20:58:23Z</time>
</trkpt>
<trkpt lat="53.3453945" lon="18.4027274">
<ele>65</ele>
<time>2015-08-01T20:58:25Z</time>
</trkpt>
<trkpt lat="53.3454304" lon="18.4029206">
<ele>67</ele>
<time>2015-08-01T20:58:27Z</time>
</trkpt>
<trkpt lat="53.3454701" lon="18.4031177">
<ele>68</ele>
<time>2015-08-01T20:58:29Z</time>
</trkpt>
<trkpt lat="53.3455221" lon="18.4032924">
<ele>68</ele>
<time>2015-08-01T20:58:31Z</time>
</trkpt>
<trkpt lat="53.3455757" lon="18.4034650">
<ele>68</ele>
<time>2015-08-01T20:58:33Z</time>
</trkpt>
<trkpt lat="53.3456238" lon="18.4036196">
<ele>69</ele>
<time>2015-08-01T20:58:35Z</time>
</trkpt>
<trkpt lat="53.3456753" lon="18.4037729">
<ele>69</ele>
<time>2015-08-01T20:58:37Z</time>
</trkpt>
<trkpt lat="53.3457234" lon="18.4039249">
<ele>69</ele>
<time>2015-08-01T20:58:39Z</time>
</trkpt>
<trkpt lat="53.3457795" lon="18.4040853">
<ele>70</ele>
<time>2015-08-01T20:58:41Z</time>
</trkpt>
<trkpt lat="53.3458130" lon="18.4042458">
<ele>71</ele>
<time>2015-08-01T20:58:43Z</time>
</trkpt>
<trkpt lat="53.3458583" lon="18.4043955">
<ele>71</ele>
<time>2015-08-01T20:58:45Z</time>
</trkpt>
<trkpt lat="53.3458990" lon="18.4045794">
<ele>72</ele>
<time>2015-08-01T20:58:47Z</time>
</trkpt>
<trkpt lat="53.3459468" lon="18.4047188">
<ele>72</ele>
<time>2015-08-01T20:58:49Z</time>
</trkpt>
<trkpt lat="53.3459965" lon="18.4048792">
<ele>73</ele>
<time>2015-08-01T20:58:51Z</time>
</trkpt>
<trkpt lat="53.3460463" lon="18.4050434">
<ele>73</ele>
<time>2015-08-01T20:58:53Z</time>
</trkpt>
<trkpt lat="53.3460873" lon="18.4052277">
<ele>73</ele>
<time>2015-08-01T20:58:55Z</time>
</trkpt>
<trkpt lat="53.3461277" lon="18.4054169">
<ele>72</ele>
<time>2015-08-01T20:58:57Z</time>
</trkpt>
<trkpt lat="53.3461826" lon="18.4055943">
<ele>72</ele>
<time>2015-08-01T20:58:59Z</time>
</trkpt>
<trkpt lat="53.3462367" lon="18.4057820">
<ele>72</ele>
<time>2015-08-01T20:59:01Z</time>
</trkpt>
<trkpt lat="53.3462954" lon="18.4059949">
<ele>71</ele>
<time>2015-08-01T20:59:03Z</time>
</trkpt>
<trkpt lat="53.3463608" lon="18.4061891">
<ele>71</ele>
<time>2015-08-01T20:59:05Z</time>
</trkpt>
<trkpt lat="53.3464394" lon="18.4063446">
<ele>70</ele>
<time>2015-08-01T20:59:07Z</time>
</trkpt>
<trkpt lat="53.3465068" lon="18.4065189">
<ele>69</ele>
<time>2015-08-01T20:59:09Z</time>
</trkpt>
<trkpt lat="53.3465741" lon="18.4066800">
<ele>69</ele>
<time>2015-08-01T20:59:11Z</time>
</trkpt>
<trkpt lat="53.346632" lon="18.4068326">
<ele>69</ele>
<time>2015-08-01T20:59:13Z</time>
</trkpt>
<trkpt lat="53.3466972" lon="18.4069682">
<ele>69</ele>
<time>2015-08-01T20:59:15Z</time>
</trkpt>
<trkpt lat="53.3467618" lon="18.4070977">
<ele>69</ele>
<time>2015-08-01T20:59:17Z</time>
</trkpt>
<trkpt lat="53.3468314" lon="18.4072462">
<ele>68</ele>
<time>2015-08-01T20:59:19Z</time>
</trkpt>
<trkpt lat="53.3468850" lon="18.4074175">
<ele>69</ele>
<time>2015-08-01T20:59:21Z</time>
</trkpt>
<trkpt lat="53.3469320" lon="18.4075940">
<ele>68</ele>
<time>2015-08-01T20:59:23Z</time>
</trkpt>
<trkpt lat="53.3469717" lon="18.4077812">
<ele>70</ele>
<time>2015-08-01T20:59:25Z</time>
</trkpt>
<trkpt lat="53.3470152" lon="18.4079699">
<ele>70</ele>
<time>2015-08-01T20:59:27Z</time>
</trkpt>
<trkpt lat="53.3470450" lon="18.4081452">
<ele>70</ele>
<time>2015-08-01T20:59:29Z</time>
</trkpt>
<trkpt lat="53.3470927" lon="18.4082946">
<ele>72</ele>
<time>2015-08-01T20:59:31Z</time>
</trkpt>
<trkpt lat="53.3471238" lon="18.4084494">
<ele>72</ele>
<time>2015-08-01T20:59:33Z</time>
</trkpt>
<trkpt lat="53.3471612" lon="18.4086080">
<ele>71</ele>
<time>2015-08-01T20:59:35Z</time>
</trkpt>
<trkpt lat="53.3471959" lon="18.4087450">
<ele>72</ele>
<time>2015-08-01T20:59:37Z</time>
</trkpt>
<trkpt lat="53.3472161" lon="18.4089009">
<ele>71</ele>
<time>2015-08-01T20:59:39Z</time>
</trkpt>
<trkpt lat="53.3472596" lon="18.4090266">
<ele>72</ele>
<time>2015-08-01T20:59:41Z</time>
</trkpt>
<trkpt lat="53.3472930" lon="18.4091598">
<ele>72</ele>
<time>2015-08-01T20:59:43Z</time>
</trkpt>
<trkpt lat="53.3473297" lon="18.4092634">
<ele>74</ele>
<time>2015-08-01T20:59:45Z</time>
</trkpt>
<trkpt lat="53.3473561" lon="18.4093916">
<ele>74</ele>
<time>2015-08-01T20:59:47Z</time>
</trkpt>
<trkpt lat="53.3473777" lon="18.4094800">
<ele>74</ele>
<time>2015-08-01T20:59:49Z</time>
</trkpt>
<trkpt lat="53.3473855" lon="18.4095928">
<ele>73</ele>
<time>2015-08-01T20:59:51Z</time>
</trkpt>
<trkpt lat="53.3473986" lon="18.409704">
<ele>73</ele>
<time>2015-08-01T20:59:53Z</time>
</trkpt>
<trkpt lat="53.3474106" lon="18.4098153">
<ele>74</ele>
<time>2015-08-01T20:59:55Z</time>
</trkpt>
<trkpt lat="53.3474431" lon="18.4099171">
<ele>75</ele>
<time>2015-08-01T20:59:57Z</time>
</trkpt>
<trkpt lat="53.3474665" lon="18.4100306">
<ele>76</ele>
<time>2015-08-01T20:59:59Z</time>
</trkpt>
<trkpt lat="53.3474811" lon="18.4101397">
<ele>77</ele>
<time>2015-08-01T21:00:01Z</time>
</trkpt>
<trkpt lat="53.3475045" lon="18.4102407">
<ele>77</ele>
<time>2015-08-01T21:00:03Z</time>
</trkpt>
<trkpt lat="53.3475353" lon="18.4103412">
<ele>79</ele>
<time>2015-08-01T21:00:05Z</time>
</trkpt>
<trkpt lat="53.3475715" lon="18.4104411">
<ele>80</ele>
<time>2015-08-01T21:00:07Z</time>
</trkpt>
<trkpt lat="53.3476016" lon="18.410539">
<ele>81</ele>
<time>2015-08-01T21:00:09Z</time>
</trkpt>
<trkpt lat="53.3476211" lon="18.4106366">
<ele>82</ele>
<time>2015-08-01T21:00:11Z</time>
</trkpt>
<trkpt lat="53.3476427" lon="18.4107379">
<ele>82</ele>
<time>2015-08-01T21:00:13Z</time>
</trkpt>
<trkpt lat="53.3476714" lon="18.4108417">
<ele>83</ele>
<time>2015-08-01T21:00:15Z</time>
</trkpt>
<trkpt lat="53.3476894" lon="18.4109465">
<ele>81</ele>
<time>2015-08-01T21:00:17Z</time>
</trkpt>
<trkpt lat="53.3477058" lon="18.4110503">
<ele>80</ele>
<time>2015-08-01T21:00:19Z</time>
</trkpt>
<trkpt lat="53.347725" lon="18.4111565">
<ele>80</ele>
<time>2015-08-01T21:00:21Z</time>
</trkpt>
<trkpt lat="53.3477485" lon="18.4112618">
<ele>81</ele>
<time>2015-08-01T21:00:23Z</time>
</trkpt>
<trkpt lat="53.3477633" lon="18.4113642">
<ele>79</ele>
<time>2015-08-01T21:00:25Z</time>
</trkpt>
<trkpt lat="53.3477822" lon="18.4114599">
<ele>79</ele>
<time>2015-08-01T21:00:27Z</time>
</trkpt>
<trkpt lat="53.3478097" lon="18.4115511">
<ele>80</ele>
<time>2015-08-01T21:00:29Z</time>
</trkpt>
<trkpt lat="53.3478332" lon="18.4116423">
<ele>80</ele>
<time>2015-08-01T21:00:31Z</time>
</trkpt>
<trkpt lat="53.3478526" lon="18.4117314">
<ele>81</ele>
<time>2015-08-01T21:00:33Z</time>
</trkpt>
<trkpt lat="53.3478808" lon="18.4118116">
<ele>84</ele>
<time>2015-08-01T21:00:35Z</time>
</trkpt>
<trkpt lat="53.3479067" lon="18.4119017">
<ele>85</ele>
<time>2015-08-01T21:00:37Z</time>
</trkpt>
<trkpt lat="53.347926" lon="18.4119994">
<ele>85</ele>
<time>2015-08-01T21:00:39Z</time>
</trkpt>
<trkpt lat="53.3479479" lon="18.4120992">
<ele>86</ele>
<time>2015-08-01T21:00:41Z</time>
</trkpt>
<trkpt lat="53.3479710" lon="18.4121991">
<ele>87</ele>
<time>2015-08-01T21:00:43Z</time>
</trkpt>
<trkpt lat="53.3479817" lon="18.4123169">
<ele>89</ele>
<time>2015-08-01T21:00:45Z</time>
</trkpt>
<trkpt lat="53.3480048" lon="18.4124310">
<ele>91</ele>
<time>2015-08-01T21:00:47Z</time>
</trkpt>
<trkpt lat="53.3480315" lon="18.4125377">
<ele>93</ele>
<time>2015-08-01T21:00:49Z</time>
</trkpt>
<trkpt lat="53.3480496" lon="18.4126414">
<ele>92</ele>
<time>2015-08-01T21:00:51Z</time>
</trkpt>
<trkpt lat="53.3480718" lon="18.4127427">
<ele>92</ele>
<time>2015-08-01T21:00:53Z</time>
</trkpt>
<trkpt lat="53.3480958" lon="18.4128459">
<ele>93</ele>
<time>2015-08-01T21:00:55Z</time>
</trkpt>
<trkpt lat="53.3481196" lon="18.4129435">
<ele>92</ele>
<time>2015-08-01T21:00:57Z</time>
</trkpt>
<trkpt lat="53.3481363" lon="18.4130372">
<ele>94</ele>
<time>2015-08-01T21:00:59Z</time>
</trkpt>
<trkpt lat="53.3481513" lon="18.4131310">
<ele>93</ele>
<time>2015-08-01T21:01:01Z</time>
</trkpt>
<trkpt lat="53.3481714" lon="18.4132289">
<ele>94</ele>
<time>2015-08-01T21:01:03Z</time>
</trkpt>
<trkpt lat="53.3481919" lon="18.4133263">
<ele>94</ele>
<time>2015-08-01T21:01:05Z</time>
</trkpt>
<trkpt lat="53.3482136" lon="18.4134162">
<ele>93</ele>
<time>2015-08-01T21:01:07Z</time>
</trkpt>
<trkpt lat="53.3482366" lon="18.4135115">
<ele>94</ele>
<time>2015-08-01T21:01:09Z</time>
</trkpt>
<trkpt lat="53.3482643" lon="18.4136047">
<ele>92</ele>
<time>2015-08-01T21:01:11Z</time>
</trkpt>
<trkpt lat="53.3482854" lon="18.4137014">
<ele>97</ele>
<time>2015-08-01T21:01:13Z</time>
</trkpt>
<trkpt lat="53.3483003" lon="18.4137972">
<ele>97</ele>
<time>2015-08-01T21:01:15Z</time>
</trkpt>
<trkpt lat="53.3483138" lon="18.4138929">
<ele>97</ele>
<time>2015-08-01T21:01:17Z</time>
</trkpt>
<trkpt lat="53.3483275" lon="18.4139877">
<ele>96</ele>
<time>2015-08-01T21:01:19Z</time>
</trkpt>
<trkpt lat="53.3483434" lon="18.4140578">
<ele>95</ele>
<time>2015-08-01T21:01:21Z</time>
</trkpt>
<trkpt lat="53.3483606" lon="18.4141222">
<ele>94</ele>
<time>2015-08-01T21:01:23Z</time>
</trkpt>
<trkpt lat="53.3483861" lon="18.4141891">
<ele>96</ele>
<time>2015-08-01T21:01:25Z</time>
</trkpt>
<trkpt lat="53.3483983" lon="18.4142686">
<ele>96</ele>
<time>2015-08-01T21:01:27Z</time>
</trkpt>
<trkpt lat="53.3484089" lon="18.4143397">
<ele>97</ele>
<time>2015-08-01T21:01:29Z</time>
</trkpt>
<trkpt lat="53.3484285" lon="18.4144091">
<ele>99</ele>
<time>2015-08-01T21:01:31Z</time>
</trkpt>
<trkpt lat="53.3484459" lon="18.4144826">
<ele>99</ele>
<time>2015-08-01T21:01:33Z</time>
</trkpt>
<trkpt lat="53.3484567" lon="18.4145606">
<ele>98</ele>
<time>2015-08-01T21:01:35Z</time>
</trkpt>
<trkpt lat="53.3484690" lon="18.4146392">
<ele>98</ele>
<time>2015-08-01T21:01:37Z</time>
</trkpt>
<trkpt lat="53.3484877" lon="18.4147174">
<ele>100</ele>
<time>2015-08-01T21:01:39Z</time>
</trkpt>
<trkpt lat="53.3485064" lon="18.4148033">
<ele>100</ele>
<time>2015-08-01T21:01:41Z</time>
</trkpt>
<trkpt lat="53.3485207" lon="18.4148902">
<ele>100</ele>
<time>2015-08-01T21:01:43Z</time>
</trkpt>
<trkpt lat="53.3485285" lon="18.4149753">
<ele>100</ele>
<time>2015-08-01T21:01:45Z</time>
</trkpt>
<trkpt lat="53.3485429" lon="18.4150543">
<ele>99</ele>
<time>2015-08-01T21:01:47Z</time>
</trkpt>
<trkpt lat="53.3485580" lon="18.4151332">
<ele>98</ele>
<time>2015-08-01T21:01:49Z</time>
</trkpt>
<trkpt lat="53.3485567" lon="18.4152305">
<ele>98</ele>
<time>2015-08-01T21:01:51Z</time>
</trkpt>
<trkpt lat="53.3485408" lon="18.4153390">
<ele>98</ele>
<time>2015-08-01T21:01:53Z</time>
</trkpt>
<trkpt lat="53.3485277" lon="18.4154410">
<ele>100</ele>
<time>2015-08-01T21:01:55Z</time>
</trkpt>
<trkpt lat="53.3485080" lon="18.4155390">
<ele>100</ele>
<time>2015-08-01T21:01:57Z</time>
</trkpt>
<trkpt lat="53.3484865" lon="18.4156330">
<ele>100</ele>
<time>2015-08-01T21:01:59Z</time>
</trkpt>
<trkpt lat="53.3484674" lon="18.4157231">
<ele>100</ele>
<time>2015-08-01T21:02:01Z</time>
</trkpt>
<trkpt lat="53.3484460" lon="18.4158035">
<ele>102</ele>
<time>2015-08-01T21:02:03Z</time>
</trkpt>
<trkpt lat="53.3484179" lon="18.4158842">
<ele>102</ele>
<time>2015-08-01T21:02:05Z</time>
</trkpt>
<trkpt lat="53.3483887" lon="18.4159741">
<ele>101</ele>
<time>2015-08-01T21:02:07Z</time>
</trkpt>
<trkpt lat="53.3483610" lon="18.4160601">
<ele>101</ele>
<time>2015-08-01T21:02:09Z</time>
</trkpt>
<trkpt lat="53.3483281" lon="18.4161439">
<ele>101</ele>
<time>2015-08-01T21:02:11Z</time>
</trkpt>
<trkpt lat="53.3481835" lon="18.4164622">
<ele>103</ele>
<time>2015-08-01T21:02:19Z</time>
</trkpt>
<trkpt lat="53.3482975" lon="18.4162333">
<ele>102</ele>
<time>2015-08-01T21:02:13Z</time>
</trkpt>
<trkpt lat="53.3482669" lon="18.4163278">
<ele>103</ele>
<time>2015-08-01T21:02:15Z</time>
</trkpt>
<trkpt lat="53.3481393" lon="18.4165216">
<ele>104</ele>
<time>2015-08-01T21:02:21Z</time>
</trkpt>
<trkpt lat="53.3480912" lon="18.4165812">
<ele>103</ele>
<time>2015-08-01T21:02:23Z</time>
</trkpt>
<trkpt lat="53.3480431" lon="18.4166306">
<ele>102</ele>
<time>2015-08-01T21:02:25Z</time>
</trkpt>
<trkpt lat="53.3479956" lon="18.4166719">
<ele>103</ele>
<time>2015-08-01T21:02:27Z</time>
</trkpt>
<trkpt lat="53.3479497" lon="18.4167197">
<ele>104</ele>
<time>2015-08-01T21:02:29Z</time>
</trkpt>
<trkpt lat="53.3479071" lon="18.4167639">
<ele>103</ele>
<time>2015-08-01T21:02:31Z</time>
</trkpt>
<trkpt lat="53.3478796" lon="18.4167917">
<ele>103</ele>
<time>2015-08-01T21:02:33Z</time>
</trkpt>
<trkpt lat="53.3478511" lon="18.4168241">
<ele>102</ele>
<time>2015-08-01T21:02:35Z</time>
</trkpt>
<trkpt lat="53.3478230" lon="18.4168790">
<ele>101</ele>
<time>2015-08-01T21:02:37Z</time>
</trkpt>
<trkpt lat="53.3477969" lon="18.4169625">
<ele>101</ele>
<time>2015-08-01T21:02:39Z</time>
</trkpt>
<trkpt lat="53.3477960" lon="18.4170634">
<ele>101</ele>
<time>2015-08-01T21:02:41Z</time>
</trkpt>
<trkpt lat="53.3478217" lon="18.4171566">
<ele>101</ele>
<time>2015-08-01T21:02:43Z</time>
</trkpt>
<trkpt lat="53.3478554" lon="18.4172487">
<ele>100</ele>
<time>2015-08-01T21:02:45Z</time>
</trkpt>
<trkpt lat="53.3478917" lon="18.4173376">
<ele>100</ele>
<time>2015-08-01T21:02:47Z</time>
</trkpt>
<trkpt lat="53.3479251" lon="18.4174216">
<ele>100</ele>
<time>2015-08-01T21:02:49Z</time>
</trkpt>
<trkpt lat="53.3479549" lon="18.4175049">
<ele>100</ele>
<time>2015-08-01T21:02:51Z</time>
</trkpt>
<trkpt lat="53.347984" lon="18.4175962">
<ele>100</ele>
<time>2015-08-01T21:02:53Z</time>
</trkpt>
<trkpt lat="53.3480116" lon="18.4176926">
<ele>100</ele>
<time>2015-08-01T21:02:55Z</time>
</trkpt>
<trkpt lat="53.3480396" lon="18.4177847">
<ele>101</ele>
<time>2015-08-01T21:02:57Z</time>
</trkpt>
<trkpt lat="53.3480686" lon="18.4178725">
<ele>100</ele>
<time>2015-08-01T21:02:59Z</time>
</trkpt>
<trkpt lat="53.3480991" lon="18.4179674">
<ele>101</ele>
<time>2015-08-01T21:03:01Z</time>
</trkpt>
<trkpt lat="53.3481290" lon="18.4180693">
<ele>102</ele>
<time>2015-08-01T21:03:03Z</time>
</trkpt>
<trkpt lat="53.3481596" lon="18.4181702">
<ele>102</ele>
<time>2015-08-01T21:03:05Z</time>
</trkpt>
<trkpt lat="53.3481894" lon="18.4182708">
<ele>103</ele>
<time>2015-08-01T21:03:07Z</time>
</trkpt>
<trkpt lat="53.3482208" lon="18.4183703">
<ele>103</ele>
<time>2015-08-01T21:03:09Z</time>
</trkpt>
<trkpt lat="53.3482537" lon="18.4184683">
<ele>103</ele>
<time>2015-08-01T21:03:11Z</time>
</trkpt>
<trkpt lat="53.3483141" lon="18.4186589">
<ele>103</ele>
<time>2015-08-01T21:03:15Z</time>
</trkpt>
<trkpt lat="53.3482861" lon="18.4185635">
<ele>103</ele>
<time>2015-08-01T21:03:13Z</time>
</trkpt>
<trkpt lat="53.3483451" lon="18.4187543">
<ele>103</ele>
<time>2015-08-01T21:03:17Z</time>
</trkpt>
<trkpt lat="53.348378" lon="18.4188454">
<ele>103</ele>
<time>2015-08-01T21:03:19Z</time>
</trkpt>
<trkpt lat="53.3484086" lon="18.4189336">
<ele>104</ele>
<time>2015-08-01T21:03:21Z</time>
</trkpt>
<trkpt lat="53.3484292" lon="18.4190249">
<ele>104</ele>
<time>2015-08-01T21:03:23Z</time>
</trkpt>
<trkpt lat="53.3484126" lon="18.4191230">
<ele>104</ele>
<time>2015-08-01T21:03:25Z</time>
</trkpt>
<trkpt lat="53.3483570" lon="18.4191860">
<ele>104</ele>
<time>2015-08-01T21:03:27Z</time>
</trkpt>
<trkpt lat="53.3482963" lon="18.4192301">
<ele>104</ele>
<time>2015-08-01T21:03:29Z</time>
</trkpt>
<trkpt lat="53.3482408" lon="18.4192772">
<ele>103</ele>
<time>2015-08-01T21:03:31Z</time>
</trkpt>
<trkpt lat="53.3481878" lon="18.4193375">
<ele>103</ele>
<time>2015-08-01T21:03:33Z</time>
</trkpt>
<trkpt lat="53.3481317" lon="18.4193973">
<ele>103</ele>
<time>2015-08-01T21:03:35Z</time>
</trkpt>
<trkpt lat="53.3480738" lon="18.4194482">
<ele>104</ele>
<time>2015-08-01T21:03:37Z</time>
</trkpt>
<trkpt lat="53.3480180" lon="18.4194977">
<ele>104</ele>
<time>2015-08-01T21:03:39Z</time>
</trkpt>
<trkpt lat="53.3479621" lon="18.4195514">
<ele>103</ele>
<time>2015-08-01T21:03:41Z</time>
</trkpt>
<trkpt lat="53.3479055" lon="18.4196051">
<ele>104</ele>
<time>2015-08-01T21:03:43Z</time>
</trkpt>
<trkpt lat="53.3478477" lon="18.4196531">
<ele>104</ele>
<time>2015-08-01T21:03:45Z</time>
</trkpt>
<trkpt lat="53.3477909" lon="18.4196968">
<ele>104</ele>
<time>2015-08-01T21:03:47Z</time>
</trkpt>
<trkpt lat="53.3477356" lon="18.4197458">
<ele>104</ele>
<time>2015-08-01T21:03:49Z</time>
</trkpt>
<trkpt lat="53.3477063" lon="18.4198405">
<ele>106</ele>
<time>2015-08-01T21:03:51Z</time>
</trkpt>
<trkpt lat="53.3477312" lon="18.4199463">
<ele>106</ele>
<time>2015-08-01T21:03:53Z</time>
</trkpt>
<trkpt lat="53.3477702" lon="18.4200381">
<ele>105</ele>
<time>2015-08-01T21:03:55Z</time>
</trkpt>
<trkpt lat="53.3478129" lon="18.4201296">
<ele>106</ele>
<time>2015-08-01T21:03:57Z</time>
</trkpt>
<trkpt lat="53.3478513" lon="18.4202291">
<ele>106</ele>
<time>2015-08-01T21:03:59Z</time>
</trkpt>
<trkpt lat="53.3478849" lon="18.4203259">
<ele>104</ele>
<time>2015-08-01T21:04:01Z</time>
</trkpt>
<trkpt lat="53.3479148" lon="18.4204250">
<ele>104</ele>
<time>2015-08-01T21:04:03Z</time>
</trkpt>
<trkpt lat="53.3479527" lon="18.4205293">
<ele>105</ele>
<time>2015-08-01T21:04:05Z</time>
</trkpt>
<trkpt lat="53.3480000" lon="18.4206337">
<ele>104</ele>
<time>2015-08-01T21:04:07Z</time>
</trkpt>
<trkpt lat="53.3480442" lon="18.4207400">
<ele>105</ele>
<time>2015-08-01T21:04:09Z</time>
</trkpt>
<trkpt lat="53.3480776" lon="18.4208470">
<ele>104</ele>
<time>2015-08-01T21:04:11Z</time>
</trkpt>
<trkpt lat="53.3481096" lon="18.4209546">
<ele>105</ele>
<time>2015-08-01T21:04:13Z</time>
</trkpt>
<trkpt lat="53.3481289" lon="18.4210576">
<ele>105</ele>
<time>2015-08-01T21:04:15Z</time>
</trkpt>
<trkpt lat="53.3481550" lon="18.4211478">
<ele>105</ele>
<time>2015-08-01T21:04:17Z</time>
</trkpt>
<trkpt lat="53.3481857" lon="18.4212359">
<ele>106</ele>
<time>2015-08-01T21:04:19Z</time>
</trkpt>
<trkpt lat="53.3482211" lon="18.4213326">
<ele>106</ele>
<time>2015-08-01T21:04:21Z</time>
</trkpt>
<trkpt lat="53.3482596" lon="18.421435">
<ele>107</ele>
<time>2015-08-01T21:04:23Z</time>
</trkpt>
<trkpt lat="53.3482961" lon="18.4215378">
<ele>106</ele>
<time>2015-08-01T21:04:25Z</time>
</trkpt>
<trkpt lat="53.3483306" lon="18.4216372">
<ele>106</ele>
<time>2015-08-01T21:04:27Z</time>
</trkpt>
<trkpt lat="53.3483715" lon="18.4217308">
<ele>106</ele>
<time>2015-08-01T21:04:29Z</time>
</trkpt>
<trkpt lat="53.3484051" lon="18.4218293">
<ele>106</ele>
<time>2015-08-01T21:04:31Z</time>
</trkpt>
<trkpt lat="53.3484305" lon="18.4219289">
<ele>107</ele>
<time>2015-08-01T21:04:33Z</time>
</trkpt>
<trkpt lat="53.3484587" lon="18.4220253">
<ele>107</ele>
<time>2015-08-01T21:04:35Z</time>
</trkpt>
<trkpt lat="53.3484868" lon="18.4221308">
<ele>107</ele>
<time>2015-08-01T21:04:37Z</time>
</trkpt>
<trkpt lat="53.3485141" lon="18.4222434">
<ele>108</ele>
<time>2015-08-01T21:04:39Z</time>
</trkpt>
<trkpt lat="53.3485453" lon="18.4223433">
<ele>108</ele>
<time>2015-08-01T21:04:41Z</time>
</trkpt>
<trkpt lat="53.3485764" lon="18.4224229">
<ele>108</ele>
<time>2015-08-01T21:04:43Z</time>
</trkpt>
<trkpt lat="53.3486135" lon="18.4224958">
<ele>108</ele>
<time>2015-08-01T21:04:45Z</time>
</trkpt>
<trkpt lat="53.3486499" lon="18.4225739">
<ele>108</ele>
<time>2015-08-01T21:04:47Z</time>
</trkpt>
<trkpt lat="53.3486735" lon="18.4226649">
<ele>108</ele>
<time>2015-08-01T21:04:49Z</time>
</trkpt>
<trkpt lat="53.3486963" lon="18.4227569">
<ele>108</ele>
<time>2015-08-01T21:04:51Z</time>
</trkpt>
<trkpt lat="53.3487263" lon="18.4228524">
<ele>108</ele>
<time>2015-08-01T21:04:53Z</time>
</trkpt>
<trkpt lat="53.3487601" lon="18.4229489">
<ele>108</ele>
<time>2015-08-01T21:04:55Z</time>
</trkpt>
<trkpt lat="53.3487908" lon="18.4230403">
<ele>108</ele>
<time>2015-08-01T21:04:57Z</time>
</trkpt>
<trkpt lat="53.3488164" lon="18.4231276">
<ele>109</ele>
<time>2015-08-01T21:04:59Z</time>
</trkpt>
<trkpt lat="53.3488434" lon="18.4232178">
<ele>109</ele>
<time>2015-08-01T21:05:01Z</time>
</trkpt>
<trkpt lat="53.3488737" lon="18.4233077">
<ele>111</ele>
<time>2015-08-01T21:05:03Z</time>
</trkpt>
<trkpt lat="53.3489053" lon="18.4233946">
<ele>111</ele>
<time>2015-08-01T21:05:05Z</time>
</trkpt>
<trkpt lat="53.3489415" lon="18.4234767">
<ele>110</ele>
<time>2015-08-01T21:05:07Z</time>
</trkpt>
<trkpt lat="53.3489759" lon="18.4235613">
<ele>109</ele>
<time>2015-08-01T21:05:09Z</time>
</trkpt>
<trkpt lat="53.3489976" lon="18.4236593">
<ele>110</ele>
<time>2015-08-01T21:05:11Z</time>
</trkpt>
<trkpt lat="53.3490287" lon="18.4237493">
<ele>110</ele>
<time>2015-08-01T21:05:13Z</time>
</trkpt>
<trkpt lat="53.3490668" lon="18.4238317">
<ele>110</ele>
<time>2015-08-01T21:05:15Z</time>
</trkpt>
<trkpt lat="53.3491015" lon="18.4239244">
<ele>111</ele>
<time>2015-08-01T21:05:17Z</time>
</trkpt>
<trkpt lat="53.3491353" lon="18.4240195">
<ele>110</ele>
<time>2015-08-01T21:05:19Z</time>
</trkpt>
<trkpt lat="53.3491615" lon="18.4241120">
<ele>110</ele>
<time>2015-08-01T21:05:21Z</time>
</trkpt>
<trkpt lat="53.3491826" lon="18.4241828">
<ele>110</ele>
<time>2015-08-01T21:05:23Z</time>
</trkpt>
<trkpt lat="53.3492012" lon="18.4242352">
<ele>112</ele>
<time>2015-08-01T21:05:25Z</time>
</trkpt>
<trkpt lat="53.3491890" lon="18.4242865">
<ele>111</ele>
<time>2015-08-01T21:05:27Z</time>
</trkpt>
<trkpt lat="53.3491797" lon="18.4243307">
<ele>111</ele>
<time>2015-08-01T21:05:29Z</time>
</trkpt>
<trkpt lat="53.3492088" lon="18.4243561">
<ele>111</ele>
<time>2015-08-01T21:05:31Z</time>
</trkpt>
<trkpt lat="53.3492539" lon="18.4243896">
<ele>109</ele>
<time>2015-08-01T21:05:33Z</time>
</trkpt>
<trkpt lat="53.3492928" lon="18.4244580">
<ele>110</ele>
<time>2015-08-01T21:05:35Z</time>
</trkpt>
<trkpt lat="53.3493170" lon="18.4245507">
<ele>110</ele>
<time>2015-08-01T21:05:37Z</time>
</trkpt>
<trkpt lat="53.3493403" lon="18.4246474">
<ele>110</ele>
<time>2015-08-01T21:05:39Z</time>
</trkpt>
<trkpt lat="53.3493729" lon="18.4247441">
<ele>111</ele>
<time>2015-08-01T21:05:41Z</time>
</trkpt>
<trkpt lat="53.3494114" lon="18.4248506">
<ele>111</ele>
<time>2015-08-01T21:05:43Z</time>
</trkpt>
<trkpt lat="53.3494520" lon="18.4249527">
<ele>111</ele>
<time>2015-08-01T21:05:45Z</time>
</trkpt>
<trkpt lat="53.3494897" lon="18.4250558">
<ele>112</ele>
<time>2015-08-01T21:05:47Z</time>
</trkpt>
<trkpt lat="53.3495318" lon="18.4251629">
<ele>112</ele>
<time>2015-08-01T21:05:49Z</time>
</trkpt>
<trkpt lat="53.3495735" lon="18.4252779">
<ele>113</ele>
<time>2015-08-01T21:05:51Z</time>
</trkpt>
<trkpt lat="53.3496071" lon="18.4253974">
<ele>113</ele>
<time>2015-08-01T21:05:53Z</time>
</trkpt>
<trkpt lat="53.3496394" lon="18.4255121">
<ele>114</ele>
<time>2015-08-01T21:05:55Z</time>
</trkpt>
<trkpt lat="53.3496753" lon="18.4256278">
<ele>114</ele>
<time>2015-08-01T21:05:57Z</time>
</trkpt>
<trkpt lat="53.3497173" lon="18.4257425">
<ele>114</ele>
<time>2015-08-01T21:05:59Z</time>
</trkpt>
<trkpt lat="53.3497591" lon="18.4258521">
<ele>114</ele>
<time>2015-08-01T21:06:01Z</time>
</trkpt>
<trkpt lat="53.3497984" lon="18.4259606">
<ele>114</ele>
<time>2015-08-01T21:06:03Z</time>
</trkpt>
<trkpt lat="53.3498361" lon="18.4260693">
<ele>114</ele>
<time>2015-08-01T21:06:05Z</time>
</trkpt>
<trkpt lat="53.3498747" lon="18.4261806">
<ele>114</ele>
<time>2015-08-01T21:06:07Z</time>
</trkpt>
<trkpt lat="53.3499110" lon="18.4262888">
<ele>114</ele>
<time>2015-08-01T21:06:09Z</time>
</trkpt>
<trkpt lat="53.3499484" lon="18.4263898">
<ele>114</ele>
<time>2015-08-01T21:06:11Z</time>
</trkpt>
<trkpt lat="53.3499925" lon="18.4264845">
<ele>115</ele>
<time>2015-08-01T21:06:13Z</time>
</trkpt>
<trkpt lat="53.3500371" lon="18.4265658">
<ele>114</ele>
<time>2015-08-01T21:06:15Z</time>
</trkpt>
<trkpt lat="53.3500703" lon="18.4266545">
<ele>113</ele>
<time>2015-08-01T21:06:17Z</time>
</trkpt>
<trkpt lat="53.3500966" lon="18.4267544">
<ele>113</ele>
<time>2015-08-01T21:06:19Z</time>
</trkpt>
<trkpt lat="53.3501316" lon="18.4268499">
<ele>113</ele>
<time>2015-08-01T21:06:21Z</time>
</trkpt>
<trkpt lat="53.3501746" lon="18.4269471">
<ele>115</ele>
<time>2015-08-01T21:06:23Z</time>
</trkpt>
<trkpt lat="53.3502111" lon="18.4270423">
<ele>113</ele>
<time>2015-08-01T21:06:25Z</time>
</trkpt>
<trkpt lat="53.3502504" lon="18.4271294">
<ele>112</ele>
<time>2015-08-01T21:06:27Z</time>
</trkpt>
<trkpt lat="53.3502954" lon="18.4272086">
<ele>112</ele>
<time>2015-08-01T21:06:29Z</time>
</trkpt>
<trkpt lat="53.3503276" lon="18.4272926">
<ele>112</ele>
<time>2015-08-01T21:06:31Z</time>
</trkpt>
<trkpt lat="53.3503544" lon="18.4273773">
<ele>112</ele>
<time>2015-08-01T21:06:33Z</time>
</trkpt>
<trkpt lat="53.3503829" lon="18.4274867">
<ele>113</ele>
<time>2015-08-01T21:06:35Z</time>
</trkpt>
<trkpt lat="53.3504133" lon="18.4276090">
<ele>114</ele>
<time>2015-08-01T21:06:37Z</time>
</trkpt>
<trkpt lat="53.3504485" lon="18.4277317">
<ele>113</ele>
<time>2015-08-01T21:06:39Z</time>
</trkpt>
<trkpt lat="53.3504815" lon="18.4278508">
<ele>113</ele>
<time>2015-08-01T21:06:41Z</time>
</trkpt>
<trkpt lat="53.3505138" lon="18.4279605">
<ele>112</ele>
<time>2015-08-01T21:06:43Z</time>
</trkpt>
<trkpt lat="53.3505524" lon="18.4280619">
<ele>111</ele>
<time>2015-08-01T21:06:45Z</time>
</trkpt>
<trkpt lat="53.3505963" lon="18.4281456">
<ele>111</ele>
<time>2015-08-01T21:06:47Z</time>
</trkpt>
<trkpt lat="53.3506451" lon="18.4281902">
<ele>110</ele>
<time>2015-08-01T21:06:49Z</time>
</trkpt>
<trkpt lat="53.3506983" lon="18.4282352">
<ele>111</ele>
<time>2015-08-01T21:06:51Z</time>
</trkpt>
<trkpt lat="53.3507411" lon="18.4283240">
<ele>110</ele>
<time>2015-08-01T21:06:53Z</time>
</trkpt>
<trkpt lat="53.3507773" lon="18.4284340">
<ele>110</ele>
<time>2015-08-01T21:06:55Z</time>
</trkpt>
<trkpt lat="53.3508078" lon="18.4285434">
<ele>109</ele>
<time>2015-08-01T21:06:57Z</time>
</trkpt>
<trkpt lat="53.3508181" lon="18.4286557">
<ele>108</ele>
<time>2015-08-01T21:06:59Z</time>
</trkpt>
<trkpt lat="53.3508290" lon="18.4287701">
<ele>107</ele>
<time>2015-08-01T21:07:01Z</time>
</trkpt>
<trkpt lat="53.3508335" lon="18.4288884">
<ele>107</ele>
<time>2015-08-01T21:07:03Z</time>
</trkpt>
<trkpt lat="53.3508327" lon="18.4290063">
<ele>109</ele>
<time>2015-08-01T21:07:05Z</time>
</trkpt>
<trkpt lat="53.3508351" lon="18.4291136">
<ele>108</ele>
<time>2015-08-01T21:07:07Z</time>
</trkpt>
<trkpt lat="53.3508471" lon="18.4292226">
<ele>109</ele>
<time>2015-08-01T21:07:09Z</time>
</trkpt>
<trkpt lat="53.3508437" lon="18.4293355">
<ele>108</ele>
<time>2015-08-01T21:07:11Z</time>
</trkpt>
<trkpt lat="53.3508320" lon="18.4294428">
<ele>106</ele>
<time>2015-08-01T21:07:13Z</time>
</trkpt>
<trkpt lat="53.3508189" lon="18.4295454">
<ele>107</ele>
<time>2015-08-01T21:07:15Z</time>
</trkpt>
<trkpt lat="53.3508082" lon="18.4296478">
<ele>108</ele>
<time>2015-08-01T21:07:17Z</time>
</trkpt>
<trkpt lat="53.3507995" lon="18.4297331">
<ele>107</ele>
<time>2015-08-01T21:07:19Z</time>
</trkpt>
<trkpt lat="53.3507954" lon="18.4297968">
<ele>105</ele>
<time>2015-08-01T21:07:21Z</time>
</trkpt>
<trkpt lat="53.3508010" lon="18.4298607">
<ele>106</ele>
<time>2015-08-01T21:07:23Z</time>
</trkpt>
<trkpt lat="53.3508124" lon="18.4299418">
<ele>106</ele>
<time>2015-08-01T21:07:25Z</time>
</trkpt>
<trkpt lat="53.3508118" lon="18.4300498">
<ele>106</ele>
<time>2015-08-01T21:07:27Z</time>
</trkpt>
<trkpt lat="53.3508042" lon="18.4301658">
<ele>105</ele>
<time>2015-08-01T21:07:29Z</time>
</trkpt>
<trkpt lat="53.3508000" lon="18.4303118">
<ele>106</ele>
<time>2015-08-01T21:07:31Z</time>
</trkpt>
<trkpt lat="53.3507970" lon="18.4304636">
<ele>105</ele>
<time>2015-08-01T21:07:33Z</time>
</trkpt>
<trkpt lat="53.3507754" lon="18.4306069">
<ele>106</ele>
<time>2015-08-01T21:07:35Z</time>
</trkpt>
<trkpt lat="53.3507583" lon="18.4307356">
<ele>106</ele>
<time>2015-08-01T21:07:37Z</time>
</trkpt>
<trkpt lat="53.3507440" lon="18.4308688">
<ele>108</ele>
<time>2015-08-01T21:07:39Z</time>
</trkpt>
<trkpt lat="53.3507195" lon="18.4310030">
<ele>109</ele>
<time>2015-08-01T21:07:41Z</time>
</trkpt>
<trkpt lat="53.3506983" lon="18.4311360">
<ele>109</ele>
<time>2015-08-01T21:07:43Z</time>
</trkpt>
<trkpt lat="53.3506797" lon="18.4313089">
<ele>109</ele>
<time>2015-08-01T21:07:45Z</time>
</trkpt>
<trkpt lat="53.3506709" lon="18.4314695">
<ele>111</ele>
<time>2015-08-01T21:07:47Z</time>
</trkpt>
<trkpt lat="53.3506585" lon="18.4316326">
<ele>110</ele>
<time>2015-08-01T21:07:49Z</time>
</trkpt>
<trkpt lat="53.3506403" lon="18.4318076">
<ele>108</ele>
<time>2015-08-01T21:07:51Z</time>
</trkpt>
<trkpt lat="53.3506140" lon="18.4319806">
<ele>110</ele>
<time>2015-08-01T21:07:53Z</time>
</trkpt>
<trkpt lat="53.3505844" lon="18.4321249">
<ele>109</ele>
<time>2015-08-01T21:07:55Z</time>
</trkpt>
<trkpt lat="53.3505775" lon="18.4323014">
<ele>113</ele>
<time>2015-08-01T21:07:57Z</time>
</trkpt>
<trkpt lat="53.3505578" lon="18.4324932">
<ele>113</ele>
<time>2015-08-01T21:07:59Z</time>
</trkpt>
<trkpt lat="53.3505262" lon="18.4326645">
<ele>110</ele>
<time>2015-08-01T21:08:01Z</time>
</trkpt>
<trkpt lat="53.3505095" lon="18.4328452">
<ele>112</ele>
<time>2015-08-01T21:08:03Z</time>
</trkpt>
<trkpt lat="53.3504762" lon="18.4330004">
<ele>111</ele>
<time>2015-08-01T21:08:05Z</time>
</trkpt>
<trkpt lat="53.3504403" lon="18.4331828">
<ele>110</ele>
<time>2015-08-01T21:08:07Z</time>
</trkpt>
<trkpt lat="53.3504163" lon="18.4333273">
<ele>109</ele>
<time>2015-08-01T21:08:09Z</time>
</trkpt>
<trkpt lat="53.3503772" lon="18.4334977">
<ele>108</ele>
<time>2015-08-01T21:08:11Z</time>
</trkpt>
<trkpt lat="53.3503442" lon="18.4336670">
<ele>107</ele>
<time>2015-08-01T21:08:13Z</time>
</trkpt>
<trkpt lat="53.3503060" lon="18.4338521">
<ele>108</ele>
<time>2015-08-01T21:08:15Z</time>
</trkpt>
<trkpt lat="53.3502667" lon="18.4340364">
<ele>107</ele>
<time>2015-08-01T21:08:17Z</time>
</trkpt>
<trkpt lat="53.3502310" lon="18.4342105">
<ele>107</ele>
<time>2015-08-01T21:08:19Z</time>
</trkpt>
<trkpt lat="53.3501899" lon="18.4343654">
<ele>107</ele>
<time>2015-08-01T21:08:21Z</time>
</trkpt>
<trkpt lat="53.3501371" lon="18.4345373">
<ele>106</ele>
<time>2015-08-01T21:08:23Z</time>
</trkpt>
<trkpt lat="53.3500856" lon="18.4346937">
<ele>106</ele>
<time>2015-08-01T21:08:25Z</time>
</trkpt>
<trkpt lat="53.3500390" lon="18.4348675">
<ele>105</ele>
<time>2015-08-01T21:08:27Z</time>
</trkpt>
<trkpt lat="53.3499992" lon="18.4350212">
<ele>105</ele>
<time>2015-08-01T21:08:29Z</time>
</trkpt>
<trkpt lat="53.3499555" lon="18.4351728">
<ele>105</ele>
<time>2015-08-01T21:08:31Z</time>
</trkpt>
<trkpt lat="53.3499222" lon="18.4353002">
<ele>105</ele>
<time>2015-08-01T21:08:33Z</time>
</trkpt>
<trkpt lat="53.3499018" lon="18.4354252">
<ele>105</ele>
<time>2015-08-01T21:08:35Z</time>
</trkpt>
<trkpt lat="53.3498653" lon="18.4355932">
<ele>105</ele>
<time>2015-08-01T21:08:37Z</time>
</trkpt>
<trkpt lat="53.3498287" lon="18.4357494">
<ele>105</ele>
<time>2015-08-01T21:08:39Z</time>
</trkpt>
<trkpt lat="53.3497870" lon="18.4359020">
<ele>104</ele>
<time>2015-08-01T21:08:41Z</time>
</trkpt>
<trkpt lat="53.3497467" lon="18.4360415">
<ele>105</ele>
<time>2015-08-01T21:08:43Z</time>
</trkpt>
<trkpt lat="53.3497089" lon="18.4361861">
<ele>103</ele>
<time>2015-08-01T21:08:45Z</time>
</trkpt>
<trkpt lat="53.3496720" lon="18.4363318">
<ele>104</ele>
<time>2015-08-01T21:08:47Z</time>
</trkpt>
<trkpt lat="53.3496211" lon="18.4364830">
<ele>103</ele>
<time>2015-08-01T21:08:49Z</time>
</trkpt>
<trkpt lat="53.3495843" lon="18.4366158">
<ele>102</ele>
<time>2015-08-01T21:08:51Z</time>
</trkpt>
<trkpt lat="53.3495349" lon="18.4367736">
<ele>101</ele>
<time>2015-08-01T21:08:53Z</time>
</trkpt>
<trkpt lat="53.3495042" lon="18.4369213">
<ele>101</ele>
<time>2015-08-01T21:08:55Z</time>
</trkpt>
<trkpt lat="53.3494641" lon="18.4370685">
<ele>101</ele>
<time>2015-08-01T21:08:57Z</time>
</trkpt>
<trkpt lat="53.349425" lon="18.4372103">
<ele>100</ele>
<time>2015-08-01T21:08:59Z</time>
</trkpt>
<trkpt lat="53.3493927" lon="18.4373560">
<ele>100</ele>
<time>2015-08-01T21:09:01Z</time>
</trkpt>
<trkpt lat="53.3493565" lon="18.4374970">
<ele>98</ele>
<time>2015-08-01T21:09:03Z</time>
</trkpt>
<trkpt lat="53.3493168" lon="18.4376358">
<ele>98</ele>
<time>2015-08-01T21:09:05Z</time>
</trkpt>
<trkpt lat="53.3492811" lon="18.4377770">
<ele>98</ele>
<time>2015-08-01T21:09:07Z</time>
</trkpt>
<trkpt lat="53.3492466" lon="18.4379128">
<ele>98</ele>
<time>2015-08-01T21:09:09Z</time>
</trkpt>
<trkpt lat="53.3492088" lon="18.4380655">
<ele>98</ele>
<time>2015-08-01T21:09:11Z</time>
</trkpt>
<trkpt lat="53.3491725" lon="18.4381956">
<ele>97</ele>
<time>2015-08-01T21:09:13Z</time>
</trkpt>
<trkpt lat="53.3491349" lon="18.4383184">
<ele>98</ele>
<time>2015-08-01T21:09:15Z</time>
</trkpt>
<trkpt lat="53.3490960" lon="18.4384518">
<ele>98</ele>
<time>2015-08-01T21:09:17Z</time>
</trkpt>
<trkpt lat="53.3490535" lon="18.4385723">
<ele>97</ele>
<time>2015-08-01T21:09:19Z</time>
</trkpt>
<trkpt lat="53.3490128" lon="18.4386964">
<ele>97</ele>
<time>2015-08-01T21:09:21Z</time>
</trkpt>
<trkpt lat="53.3489747" lon="18.4388174">
<ele>97</ele>
<time>2015-08-01T21:09:23Z</time>
</trkpt>
<trkpt lat="53.3489397" lon="18.4389474">
<ele>97</ele>
<time>2015-08-01T21:09:25Z</time>
</trkpt>
<trkpt lat="53.3489046" lon="18.4390878">
<ele>97</ele>
<time>2015-08-01T21:09:27Z</time>
</trkpt>
<trkpt lat="53.3488694" lon="18.4392253">
<ele>98</ele>
<time>2015-08-01T21:09:29Z</time>
</trkpt>
<trkpt lat="53.3488377" lon="18.4393598">
<ele>97</ele>
<time>2015-08-01T21:09:31Z</time>
</trkpt>
<trkpt lat="53.3488254" lon="18.4395070">
<ele>97</ele>
<time>2015-08-01T21:09:33Z</time>
</trkpt>
<trkpt lat="53.3488480" lon="18.4396895">
<ele>97</ele>
<time>2015-08-01T21:09:35Z</time>
</trkpt>
<trkpt lat="53.3488712" lon="18.4398412">
<ele>97</ele>
<time>2015-08-01T21:09:37Z</time>
</trkpt>
<trkpt lat="53.3488508" lon="18.4399432">
<ele>97</ele>
<time>2015-08-01T21:09:39Z</time>
</trkpt>
<trkpt lat="53.3488091" lon="18.4400072">
<ele>98</ele>
<time>2015-08-01T21:09:41Z</time>
</trkpt>
<trkpt lat="53.3487790" lon="18.4401048">
<ele>98</ele>
<time>2015-08-01T21:09:43Z</time>
</trkpt>
<trkpt lat="53.3487490" lon="18.4401932">
<ele>98</ele>
<time>2015-08-01T21:09:45Z</time>
</trkpt>
<trkpt lat="53.3487141" lon="18.4402845">
<ele>99</ele>
<time>2015-08-01T21:09:47Z</time>
</trkpt>
<trkpt lat="53.3486763" lon="18.4403842">
<ele>99</ele>
<time>2015-08-01T21:09:49Z</time>
</trkpt>
<trkpt lat="53.3486390" lon="18.4404900">
<ele>99</ele>
<time>2015-08-01T21:09:51Z</time>
</trkpt>
<trkpt lat="53.3486019" lon="18.4405983">
<ele>99</ele>
<time>2015-08-01T21:09:53Z</time>
</trkpt>
<trkpt lat="53.3485645" lon="18.4407184">
<ele>99</ele>
<time>2015-08-01T21:09:55Z</time>
</trkpt>
<trkpt lat="53.3485278" lon="18.4408427">
<ele>100</ele>
<time>2015-08-01T21:09:57Z</time>
</trkpt>
<trkpt lat="53.3484958" lon="18.4409662">
<ele>100</ele>
<time>2015-08-01T21:09:59Z</time>
</trkpt>
<trkpt lat="53.3484710" lon="18.4410697">
<ele>100</ele>
<time>2015-08-01T21:10:01Z</time>
</trkpt>
<trkpt lat="53.3484485" lon="18.4411573">
<ele>100</ele>
<time>2015-08-01T21:10:03Z</time>
</trkpt>
<trkpt lat="53.3484196" lon="18.4412465">
<ele>100</ele>
<time>2015-08-01T21:10:05Z</time>
</trkpt>
<trkpt lat="53.3483843" lon="18.4413409">
<ele>100</ele>
<time>2015-08-01T21:10:07Z</time>
</trkpt>
<trkpt lat="53.3483470" lon="18.4414476">
<ele>100</ele>
<time>2015-08-01T21:10:09Z</time>
</trkpt>
<trkpt lat="53.3483127" lon="18.4415531">
<ele>100</ele>
<time>2015-08-01T21:10:11Z</time>
</trkpt>
<trkpt lat="53.3482730" lon="18.4416580">
<ele>100</ele>
<time>2015-08-01T21:10:13Z</time>
</trkpt>
<trkpt lat="53.3482273" lon="18.4417627">
<ele>99</ele>
<time>2015-08-01T21:10:15Z</time>
</trkpt>
<trkpt lat="53.3481818" lon="18.4418649">
<ele>99</ele>
<time>2015-08-01T21:10:17Z</time>
</trkpt>
<trkpt lat="53.3481397" lon="18.4419633">
<ele>99</ele>
<time>2015-08-01T21:10:19Z</time>
</trkpt>
<trkpt lat="53.3481113" lon="18.4421713">
<ele>100</ele>
<time>2015-08-01T21:10:23Z</time>
</trkpt>
<trkpt lat="53.3481046" lon="18.4422702">
<ele>100</ele>
<time>2015-08-01T21:10:25Z</time>
</trkpt>
<trkpt lat="53.3480926" lon="18.4423701">
<ele>101</ele>
<time>2015-08-01T21:10:27Z</time>
</trkpt>
<trkpt lat="53.3480865" lon="18.4424768">
<ele>100</ele>
<time>2015-08-01T21:10:29Z</time>
</trkpt>
<trkpt lat="53.3481107" lon="18.4425787">
<ele>100</ele>
<time>2015-08-01T21:10:31Z</time>
</trkpt>
<trkpt lat="53.3481559" lon="18.4426389">
<ele>100</ele>
<time>2015-08-01T21:10:33Z</time>
</trkpt>
<trkpt lat="53.3482148" lon="18.4426803">
<ele>102</ele>
<time>2015-08-01T21:10:35Z</time>
</trkpt>
<trkpt lat="53.3482680" lon="18.4427275">
<ele>102</ele>
<time>2015-08-01T21:10:37Z</time>
</trkpt>
<trkpt lat="53.3482857" lon="18.4427943">
<ele>102</ele>
<time>2015-08-01T21:10:39Z</time>
</trkpt>
<trkpt lat="53.3482542" lon="18.4428567">
<ele>101</ele>
<time>2015-08-01T21:10:41Z</time>
</trkpt>
<trkpt lat="53.3482135" lon="18.4429358">
<ele>101</ele>
<time>2015-08-01T21:10:43Z</time>
</trkpt>
<trkpt lat="53.3481652" lon="18.4430230">
<ele>101</ele>
<time>2015-08-01T21:10:45Z</time>
</trkpt>
<trkpt lat="53.3481224" lon="18.4431110">
<ele>100</ele>
<time>2015-08-01T21:10:47Z</time>
</trkpt>
<trkpt lat="53.3481214" lon="18.4431848">
<ele>101</ele>
<time>2015-08-01T21:10:49Z</time>
</trkpt>
<trkpt lat="53.3481344" lon="18.4432010">
<ele>101</ele>
<time>2015-08-01T21:10:51Z</time>
</trkpt>
<trkpt lat="53.3481546" lon="18.4432177">
<ele>101</ele>
<time>2015-08-01T21:10:53Z</time>
</trkpt>
<trkpt lat="53.3481831" lon="18.4432793">
<ele>100</ele>
<time>2015-08-01T21:10:55Z</time>
</trkpt>
<trkpt lat="53.3481791" lon="18.4433734">
<ele>100</ele>
<time>2015-08-01T21:10:57Z</time>
</trkpt>
<trkpt lat="53.3481397" lon="18.4434645">
<ele>100</ele>
<time>2015-08-01T21:10:59Z</time>
</trkpt>
<trkpt lat="53.3480971" lon="18.4435715">
<ele>100</ele>
<time>2015-08-01T21:11:01Z</time>
</trkpt>
<trkpt lat="53.3480488" lon="18.4436905">
<ele>100</ele>
<time>2015-08-01T21:11:03Z</time>
</trkpt>
<trkpt lat="53.3480003" lon="18.4438097">
<ele>100</ele>
<time>2015-08-01T21:11:05Z</time>
</trkpt>
<trkpt lat="53.3479599" lon="18.4439258">
<ele>100</ele>
<time>2015-08-01T21:11:07Z</time>
</trkpt>
<trkpt lat="53.3479238" lon="18.4440335">
<ele>100</ele>
<time>2015-08-01T21:11:09Z</time>
</trkpt>
<trkpt lat="53.3478836" lon="18.4441347">
<ele>100</ele>
<time>2015-08-01T21:11:11Z</time>
</trkpt>
<trkpt lat="53.3478478" lon="18.4442293">
<ele>100</ele>
<time>2015-08-01T21:11:13Z</time>
</trkpt>
<trkpt lat="53.3478477" lon="18.4443323">
<ele>100</ele>
<time>2015-08-01T21:11:15Z</time>
</trkpt>
<trkpt lat="53.3478974" lon="18.4444112">
<ele>101</ele>
<time>2015-08-01T21:11:17Z</time>
</trkpt>
<trkpt lat="53.3479663" lon="18.4444544">
<ele>102</ele>
<time>2015-08-01T21:11:19Z</time>
</trkpt>
<trkpt lat="53.3480225" lon="18.4444898">
<ele>102</ele>
<time>2015-08-01T21:11:21Z</time>
</trkpt>
<trkpt lat="53.3480666" lon="18.4445351">
<ele>102</ele>
<time>2015-08-01T21:11:23Z</time>
</trkpt>
<trkpt lat="53.3480995" lon="18.4445758">
<ele>102</ele>
<time>2015-08-01T21:11:25Z</time>
</trkpt>
<trkpt lat="53.3481114" lon="18.4446008">
<ele>102</ele>
<time>2015-08-01T21:11:27Z</time>
</trkpt>
<trkpt lat="53.3481174" lon="18.444643">
<ele>102</ele>
<time>2015-08-01T21:11:29Z</time>
</trkpt>
<trkpt lat="53.348125" lon="18.4447147">
<ele>102</ele>
<time>2015-08-01T21:11:31Z</time>
</trkpt>
<trkpt lat="53.3481579" lon="18.4447873">
<ele>102</ele>
<time>2015-08-01T21:11:33Z</time>
</trkpt>
<trkpt lat="53.3482235" lon="18.4448329">
<ele>102</ele>
<time>2015-08-01T21:11:35Z</time>
</trkpt>
<trkpt lat="53.3483001" lon="18.4448614">
<ele>102</ele>
<time>2015-08-01T21:11:37Z</time>
</trkpt>
<trkpt lat="53.3483774" lon="18.4448793">
<ele>102</ele>
<time>2015-08-01T21:11:39Z</time>
</trkpt>
<trkpt lat="53.3484630" lon="18.4448918">
<ele>102</ele>
<time>2015-08-01T21:11:41Z</time>
</trkpt>
<trkpt lat="53.3485549" lon="18.4449077">
<ele>101</ele>
<time>2015-08-01T21:11:43Z</time>
</trkpt>
<trkpt lat="53.3486397" lon="18.4449293">
<ele>101</ele>
<time>2015-08-01T21:11:45Z</time>
</trkpt>
<trkpt lat="53.3486924" lon="18.4449815">
<ele>101</ele>
<time>2015-08-01T21:11:47Z</time>
</trkpt>
<trkpt lat="53.3486742" lon="18.4450457">
<ele>100</ele>
<time>2015-08-01T21:11:49Z</time>
</trkpt>
<trkpt lat="53.3486286" lon="18.4451181">
<ele>99</ele>
<time>2015-08-01T21:11:51Z</time>
</trkpt>
<trkpt lat="53.3485731" lon="18.4452244">
<ele>99</ele>
<time>2015-08-01T21:11:53Z</time>
</trkpt>
<trkpt lat="53.3485247" lon="18.4453290">
<ele>99</ele>
<time>2015-08-01T21:11:55Z</time>
</trkpt>
<trkpt lat="53.3484925" lon="18.4454431">
<ele>99</ele>
<time>2015-08-01T21:11:57Z</time>
</trkpt>
<trkpt lat="53.3484845" lon="18.4455674">
<ele>99</ele>
<time>2015-08-01T21:11:59Z</time>
</trkpt>
<trkpt lat="53.3484761" lon="18.4456789">
<ele>100</ele>
<time>2015-08-01T21:12:01Z</time>
</trkpt>
<trkpt lat="53.3484491" lon="18.4457317">
<ele>100</ele>
<time>2015-08-01T21:12:03Z</time>
</trkpt>
<trkpt lat="53.3483898" lon="18.4457038">
<ele>100</ele>
<time>2015-08-01T21:12:05Z</time>
</trkpt>
<trkpt lat="53.3483202" lon="18.4456595">
<ele>101</ele>
<time>2015-08-01T21:12:07Z</time>
</trkpt>
<trkpt lat="53.3482528" lon="18.4456301">
<ele>101</ele>
<time>2015-08-01T21:12:09Z</time>
</trkpt>
<trkpt lat="53.3481998" lon="18.4456632">
<ele>100</ele>
<time>2015-08-01T21:12:11Z</time>
</trkpt>
<trkpt lat="53.3481783" lon="18.4457558">
<ele>100</ele>
<time>2015-08-01T21:12:13Z</time>
</trkpt>
<trkpt lat="53.3481926" lon="18.4458701">
<ele>100</ele>
<time>2015-08-01T21:12:15Z</time>
</trkpt>
<trkpt lat="53.3482246" lon="18.4459724">
<ele>102</ele>
<time>2015-08-01T21:12:17Z</time>
</trkpt>
<trkpt lat="53.3482393" lon="18.4460606">
<ele>102</ele>
<time>2015-08-01T21:12:19Z</time>
</trkpt>
<trkpt lat="53.3482393" lon="18.4461511">
<ele>102</ele>
<time>2015-08-01T21:12:21Z</time>
</trkpt>
<trkpt lat="53.3482235" lon="18.4462367">
<ele>100</ele>
<time>2015-08-01T21:12:23Z</time>
</trkpt>
<trkpt lat="53.3482047" lon="18.4462672">
<ele>102</ele>
<time>2015-08-01T21:12:25Z</time>
</trkpt>
<trkpt lat="53.3482156" lon="18.4462408">
<ele>103</ele>
<time>2015-08-01T21:12:27Z</time>
</trkpt>
<trkpt lat="53.3482198" lon="18.4462311">
<ele>103</ele>
<time>2015-08-01T21:12:29Z</time>
</trkpt>
<trkpt lat="53.3482241" lon="18.4462227">
<ele>103</ele>
<time>2015-08-01T21:12:31Z</time>
</trkpt>
<trkpt lat="53.3482300" lon="18.4462153">
<ele>103</ele>
<time>2015-08-01T21:12:33Z</time>
</trkpt>
<trkpt lat="53.3482366" lon="18.4462057">
<ele>103</ele>
<time>2015-08-01T21:12:35Z</time>
</trkpt>
<trkpt lat="53.3482423" lon="18.4462011">
<ele>104</ele>
<time>2015-08-01T21:12:37Z</time>
</trkpt>
<trkpt lat="53.3482467" lon="18.4461997">
<ele>104</ele>
<time>2015-08-01T21:12:39Z</time>
</trkpt>
<trkpt lat="53.3482491" lon="18.4461994">
<ele>104</ele>
<time>2015-08-01T21:12:41Z</time>
</trkpt>
<trkpt lat="" lon="">
<ele></ele>
<time>2015-08-01TZ</time>
</trkpt>
</trkseg>
</trk>
<wpt lat="" lon="">
	<name></name>
	<desc></desc>
	<cmt></cmt>
	<photoid></photoid>
	<type></type>
</wpt>
</gpx>
